<?xml version="1.0" encoding="UTF-8" standalone="no" ?>
<gpx xmlns="http://www.topografix.com/GPX/1/1" xmlns:xsi="http://www.w3.org/2001/XMLSchema-instance" xsi:schemaLocation="http://www.topografix.com/GPX/1/1 http://www.topografix.com/GPX/1/1/gpx.xsd" version="1.1" creator="VisuGPX - https://www.visugpx.com">
  <metadata>
    <name>Brèche de Roland</name>
  </metadata>
  <wpt lat="42.72964" lon="-0.03167">
    <ele>1828</ele>
    <name><![CDATA[]]></name>
    <type><![CDATA[GENERIC]]></type>
  </wpt>
  <wpt lat="42.72757" lon="-0.03157">
    <ele>1841</ele>
    <name><![CDATA[]]></name>
    <type><![CDATA[GENERIC]]></type>
  </wpt>
  <trk>
    <name><![CDATA[Brèche de Roland ]]></name>
    <trkseg>
      <trkpt lat="42.72757" lon="-0.03157">
        <ele>1841</ele>
        <time>2025-04-06T06:55:03.000Z</time>
      </trkpt>
      <trkpt lat="42.72751" lon="-0.03156">
        <ele>1842</ele>
        <time>2025-04-06T06:55:06.000Z</time>
      </trkpt>
      <trkpt lat="42.72739" lon="-0.03157">
        <ele>1843</ele>
        <time>2025-04-06T06:55:19.000Z</time>
      </trkpt>
      <trkpt lat="42.72726" lon="-0.03167">
        <ele>1844</ele>
        <time>2025-04-06T06:55:33.000Z</time>
      </trkpt>
      <trkpt lat="42.72714" lon="-0.03179">
        <ele>1844</ele>
        <time>2025-04-06T06:55:47.000Z</time>
      </trkpt>
      <trkpt lat="42.72705" lon="-0.03193">
        <ele>1846</ele>
        <time>2025-04-06T06:56:00.000Z</time>
      </trkpt>
      <trkpt lat="42.72698" lon="-0.03208">
        <ele>1847</ele>
        <time>2025-04-06T06:56:14.000Z</time>
      </trkpt>
      <trkpt lat="42.72692" lon="-0.03225">
        <ele>1848</ele>
        <time>2025-04-06T06:56:28.000Z</time>
      </trkpt>
      <trkpt lat="42.72689" lon="-0.03243">
        <ele>1850</ele>
        <time>2025-04-06T06:56:42.000Z</time>
      </trkpt>
      <trkpt lat="42.72685" lon="-0.03261">
        <ele>1852</ele>
        <time>2025-04-06T06:56:56.000Z</time>
      </trkpt>
      <trkpt lat="42.72681" lon="-0.03278">
        <ele>1853</ele>
        <time>2025-04-06T06:57:10.000Z</time>
      </trkpt>
      <trkpt lat="42.72677" lon="-0.03296">
        <ele>1854</ele>
        <time>2025-04-06T06:57:24.000Z</time>
      </trkpt>
      <trkpt lat="42.72671" lon="-0.03314">
        <ele>1855</ele>
        <time>2025-04-06T06:57:40.000Z</time>
      </trkpt>
      <trkpt lat="42.72667" lon="-0.03331">
        <ele>1857</ele>
        <time>2025-04-06T06:57:54.000Z</time>
      </trkpt>
      <trkpt lat="42.72664" lon="-0.0335">
        <ele>1858</ele>
        <time>2025-04-06T06:58:10.000Z</time>
      </trkpt>
      <trkpt lat="42.72664" lon="-0.03368">
        <ele>1862</ele>
        <time>2025-04-06T06:58:26.000Z</time>
      </trkpt>
      <trkpt lat="42.72668" lon="-0.03387">
        <ele>1864</ele>
        <time>2025-04-06T06:58:42.000Z</time>
      </trkpt>
      <trkpt lat="42.72671" lon="-0.03406">
        <ele>1867</ele>
        <time>2025-04-06T06:58:58.000Z</time>
      </trkpt>
      <trkpt lat="42.72674" lon="-0.03424">
        <ele>1868</ele>
        <time>2025-04-06T06:59:12.000Z</time>
      </trkpt>
      <trkpt lat="42.72675" lon="-0.03442">
        <ele>1864</ele>
        <time>2025-04-06T06:59:28.000Z</time>
      </trkpt>
      <trkpt lat="42.72672" lon="-0.0346">
        <ele>1865</ele>
        <time>2025-04-06T06:59:44.000Z</time>
      </trkpt>
      <trkpt lat="42.72669" lon="-0.03477">
        <ele>1869</ele>
        <time>2025-04-06T07:00:00.000Z</time>
      </trkpt>
      <trkpt lat="42.72667" lon="-0.03495">
        <ele>1869</ele>
        <time>2025-04-06T07:00:16.000Z</time>
      </trkpt>
      <trkpt lat="42.72663" lon="-0.03513">
        <ele>1871</ele>
        <time>2025-04-06T07:00:30.000Z</time>
      </trkpt>
      <trkpt lat="42.72662" lon="-0.03532">
        <ele>1872</ele>
        <time>2025-04-06T07:00:46.000Z</time>
      </trkpt>
      <trkpt lat="42.7266" lon="-0.03551">
        <ele>1875</ele>
        <time>2025-04-06T07:01:02.000Z</time>
      </trkpt>
      <trkpt lat="42.72659" lon="-0.0357">
        <ele>1878</ele>
        <time>2025-04-06T07:01:20.000Z</time>
      </trkpt>
      <trkpt lat="42.72658" lon="-0.03589">
        <ele>1880</ele>
        <time>2025-04-06T07:01:37.000Z</time>
      </trkpt>
      <trkpt lat="42.72659" lon="-0.03607">
        <ele>1879</ele>
        <time>2025-04-06T07:01:52.000Z</time>
      </trkpt>
      <trkpt lat="42.72662" lon="-0.03626">
        <ele>1882</ele>
        <time>2025-04-06T07:02:10.000Z</time>
      </trkpt>
      <trkpt lat="42.72665" lon="-0.03645">
        <ele>1882</ele>
        <time>2025-04-06T07:02:27.000Z</time>
      </trkpt>
      <trkpt lat="42.7267" lon="-0.03664">
        <ele>1883</ele>
        <time>2025-04-06T07:02:42.000Z</time>
      </trkpt>
      <trkpt lat="42.72673" lon="-0.03683">
        <ele>1885</ele>
        <time>2025-04-06T07:02:58.000Z</time>
      </trkpt>
      <trkpt lat="42.72677" lon="-0.03701">
        <ele>1887</ele>
        <time>2025-04-06T07:03:14.000Z</time>
      </trkpt>
      <trkpt lat="42.72681" lon="-0.0372">
        <ele>1888</ele>
        <time>2025-04-06T07:03:29.000Z</time>
      </trkpt>
      <trkpt lat="42.72684" lon="-0.03738">
        <ele>1890</ele>
        <time>2025-04-06T07:03:45.000Z</time>
      </trkpt>
      <trkpt lat="42.72687" lon="-0.03756">
        <ele>1892</ele>
        <time>2025-04-06T07:04:01.000Z</time>
      </trkpt>
      <trkpt lat="42.72691" lon="-0.03775">
        <ele>1895</ele>
        <time>2025-04-06T07:04:18.000Z</time>
      </trkpt>
      <trkpt lat="42.72695" lon="-0.03795">
        <ele>1897</ele>
        <time>2025-04-06T07:04:35.000Z</time>
      </trkpt>
      <trkpt lat="42.72699" lon="-0.03814">
        <ele>1894</ele>
        <time>2025-04-06T07:04:51.000Z</time>
      </trkpt>
      <trkpt lat="42.72702" lon="-0.03834">
        <ele>1897</ele>
        <time>2025-04-06T07:05:08.000Z</time>
      </trkpt>
      <trkpt lat="42.72704" lon="-0.03854">
        <ele>1900</ele>
        <time>2025-04-06T07:05:25.000Z</time>
      </trkpt>
      <trkpt lat="42.72708" lon="-0.03872">
        <ele>1901</ele>
        <time>2025-04-06T07:05:40.000Z</time>
      </trkpt>
      <trkpt lat="42.72712" lon="-0.03891">
        <ele>1901</ele>
        <time>2025-04-06T07:05:57.000Z</time>
      </trkpt>
      <trkpt lat="42.72716" lon="-0.0391">
        <ele>1905</ele>
        <time>2025-04-06T07:06:13.000Z</time>
      </trkpt>
      <trkpt lat="42.72721" lon="-0.03927">
        <ele>1906</ele>
        <time>2025-04-06T07:06:27.000Z</time>
      </trkpt>
      <trkpt lat="42.72725" lon="-0.03944">
        <ele>1909</ele>
        <time>2025-04-06T07:06:43.000Z</time>
      </trkpt>
      <trkpt lat="42.7273" lon="-0.03961">
        <ele>1909</ele>
        <time>2025-04-06T07:06:57.000Z</time>
      </trkpt>
      <trkpt lat="42.72731" lon="-0.0398">
        <ele>1911</ele>
        <time>2025-04-06T07:07:13.000Z</time>
      </trkpt>
      <trkpt lat="42.72732" lon="-0.03998">
        <ele>1912</ele>
        <time>2025-04-06T07:07:28.000Z</time>
      </trkpt>
      <trkpt lat="42.72731" lon="-0.04017">
        <ele>1913</ele>
        <time>2025-04-06T07:07:43.000Z</time>
      </trkpt>
      <trkpt lat="42.7273" lon="-0.04036">
        <ele>1915</ele>
        <time>2025-04-06T07:07:59.000Z</time>
      </trkpt>
      <trkpt lat="42.72729" lon="-0.04056">
        <ele>1917</ele>
        <time>2025-04-06T07:08:17.000Z</time>
      </trkpt>
      <trkpt lat="42.72726" lon="-0.04074">
        <ele>1919</ele>
        <time>2025-04-06T07:08:32.000Z</time>
      </trkpt>
      <trkpt lat="42.72717" lon="-0.04088">
        <ele>1920</ele>
        <time>2025-04-06T07:08:49.000Z</time>
      </trkpt>
      <trkpt lat="42.72705" lon="-0.04098">
        <ele>1922</ele>
        <time>2025-04-06T07:09:05.000Z</time>
      </trkpt>
      <trkpt lat="42.72695" lon="-0.0411">
        <ele>1925</ele>
        <time>2025-04-06T07:09:24.000Z</time>
      </trkpt>
      <trkpt lat="42.72685" lon="-0.04123">
        <ele>1927</ele>
        <time>2025-04-06T07:09:45.000Z</time>
      </trkpt>
      <trkpt lat="42.72673" lon="-0.04135">
        <ele>1928</ele>
        <time>2025-04-06T07:10:04.000Z</time>
      </trkpt>
      <trkpt lat="42.72661" lon="-0.0414">
        <ele>1930</ele>
        <time>2025-04-06T07:10:21.000Z</time>
      </trkpt>
      <trkpt lat="42.72648" lon="-0.04145">
        <ele>1931</ele>
        <time>2025-04-06T07:10:34.000Z</time>
      </trkpt>
      <trkpt lat="42.72635" lon="-0.04149">
        <ele>1933</ele>
        <time>2025-04-06T07:10:45.000Z</time>
      </trkpt>
      <trkpt lat="42.72621" lon="-0.04154">
        <ele>1935</ele>
        <time>2025-04-06T07:11:01.000Z</time>
      </trkpt>
      <trkpt lat="42.72607" lon="-0.04159">
        <ele>1938</ele>
        <time>2025-04-06T07:11:16.000Z</time>
      </trkpt>
      <trkpt lat="42.72594" lon="-0.04167">
        <ele>1939</ele>
        <time>2025-04-06T07:11:37.000Z</time>
      </trkpt>
      <trkpt lat="42.72581" lon="-0.04176">
        <ele>1942</ele>
        <time>2025-04-06T07:11:56.000Z</time>
      </trkpt>
      <trkpt lat="42.72569" lon="-0.04186">
        <ele>1944</ele>
        <time>2025-04-06T07:12:14.000Z</time>
      </trkpt>
      <trkpt lat="42.72558" lon="-0.04198">
        <ele>1946</ele>
        <time>2025-04-06T07:12:33.000Z</time>
      </trkpt>
      <trkpt lat="42.72547" lon="-0.04209">
        <ele>1947</ele>
        <time>2025-04-06T07:12:47.000Z</time>
      </trkpt>
      <trkpt lat="42.72537" lon="-0.04221">
        <ele>1949</ele>
        <time>2025-04-06T07:13:03.000Z</time>
      </trkpt>
      <trkpt lat="42.72526" lon="-0.04233">
        <ele>1950</ele>
        <time>2025-04-06T07:13:17.000Z</time>
      </trkpt>
      <trkpt lat="42.72516" lon="-0.04244">
        <ele>1952</ele>
        <time>2025-04-06T07:13:32.000Z</time>
      </trkpt>
      <trkpt lat="42.72504" lon="-0.04254">
        <ele>1954</ele>
        <time>2025-04-06T07:13:46.000Z</time>
      </trkpt>
      <trkpt lat="42.72494" lon="-0.04265">
        <ele>1954</ele>
        <time>2025-04-06T07:14:01.000Z</time>
      </trkpt>
      <trkpt lat="42.72483" lon="-0.04275">
        <ele>1954</ele>
        <time>2025-04-06T07:14:17.000Z</time>
      </trkpt>
      <trkpt lat="42.72472" lon="-0.04288">
        <ele>1956</ele>
        <time>2025-04-06T07:14:33.000Z</time>
      </trkpt>
      <trkpt lat="42.72462" lon="-0.04301">
        <ele>1959</ele>
        <time>2025-04-06T07:15:13.000Z</time>
      </trkpt>
      <trkpt lat="42.72451" lon="-0.04314">
        <ele>1959</ele>
        <time>2025-04-06T07:15:30.000Z</time>
      </trkpt>
      <trkpt lat="42.7244" lon="-0.04327">
        <ele>1961</ele>
        <time>2025-04-06T07:15:47.000Z</time>
      </trkpt>
      <trkpt lat="42.7243" lon="-0.04341">
        <ele>1963</ele>
        <time>2025-04-06T07:16:01.000Z</time>
      </trkpt>
      <trkpt lat="42.72418" lon="-0.04354">
        <ele>1964</ele>
        <time>2025-04-06T07:16:18.000Z</time>
      </trkpt>
      <trkpt lat="42.72407" lon="-0.04368">
        <ele>1965</ele>
        <time>2025-04-06T07:16:34.000Z</time>
      </trkpt>
      <trkpt lat="42.72397" lon="-0.04381">
        <ele>1967</ele>
        <time>2025-04-06T07:16:48.000Z</time>
      </trkpt>
      <trkpt lat="42.72387" lon="-0.04394">
        <ele>1969</ele>
        <time>2025-04-06T07:17:04.000Z</time>
      </trkpt>
      <trkpt lat="42.72378" lon="-0.04409">
        <ele>1971</ele>
        <time>2025-04-06T07:17:20.000Z</time>
      </trkpt>
      <trkpt lat="42.72369" lon="-0.04425">
        <ele>1971</ele>
        <time>2025-04-06T07:17:37.000Z</time>
      </trkpt>
      <trkpt lat="42.72361" lon="-0.04441">
        <ele>1972</ele>
        <time>2025-04-06T07:17:53.000Z</time>
      </trkpt>
      <trkpt lat="42.72353" lon="-0.04456">
        <ele>1974</ele>
        <time>2025-04-06T07:18:06.000Z</time>
      </trkpt>
      <trkpt lat="42.72345" lon="-0.04472">
        <ele>1976</ele>
        <time>2025-04-06T07:18:22.000Z</time>
      </trkpt>
      <trkpt lat="42.72337" lon="-0.04487">
        <ele>1977</ele>
        <time>2025-04-06T07:18:37.000Z</time>
      </trkpt>
      <trkpt lat="42.7233" lon="-0.04503">
        <ele>1979</ele>
        <time>2025-04-06T07:18:52.000Z</time>
      </trkpt>
      <trkpt lat="42.72322" lon="-0.0452">
        <ele>1981</ele>
        <time>2025-04-06T07:19:09.000Z</time>
      </trkpt>
      <trkpt lat="42.72316" lon="-0.04536">
        <ele>1981</ele>
        <time>2025-04-06T07:19:24.000Z</time>
      </trkpt>
      <trkpt lat="42.72309" lon="-0.04553">
        <ele>1981</ele>
        <time>2025-04-06T07:19:40.000Z</time>
      </trkpt>
      <trkpt lat="42.72304" lon="-0.04571">
        <ele>1982</ele>
        <time>2025-04-06T07:19:54.000Z</time>
      </trkpt>
      <trkpt lat="42.72299" lon="-0.04588">
        <ele>1985</ele>
        <time>2025-04-06T07:20:10.000Z</time>
      </trkpt>
      <trkpt lat="42.72294" lon="-0.04606">
        <ele>1987</ele>
        <time>2025-04-06T07:20:25.000Z</time>
      </trkpt>
      <trkpt lat="42.72291" lon="-0.04623">
        <ele>1989</ele>
        <time>2025-04-06T07:20:41.000Z</time>
      </trkpt>
      <trkpt lat="42.72285" lon="-0.04641">
        <ele>1990</ele>
        <time>2025-04-06T07:21:18.000Z</time>
      </trkpt>
      <trkpt lat="42.72278" lon="-0.04657">
        <ele>1992</ele>
        <time>2025-04-06T07:21:34.000Z</time>
      </trkpt>
      <trkpt lat="42.72266" lon="-0.04663">
        <ele>1995</ele>
        <time>2025-04-06T07:21:59.000Z</time>
      </trkpt>
      <trkpt lat="42.72252" lon="-0.04664">
        <ele>1996</ele>
        <time>2025-04-06T07:22:16.000Z</time>
      </trkpt>
      <trkpt lat="42.7224" lon="-0.04672">
        <ele>2000</ele>
        <time>2025-04-06T07:22:30.000Z</time>
      </trkpt>
      <trkpt lat="42.72231" lon="-0.04686">
        <ele>2004</ele>
        <time>2025-04-06T07:22:45.000Z</time>
      </trkpt>
      <trkpt lat="42.72222" lon="-0.047">
        <ele>2004</ele>
        <time>2025-04-06T07:23:00.000Z</time>
      </trkpt>
      <trkpt lat="42.72215" lon="-0.04716">
        <ele>2005</ele>
        <time>2025-04-06T07:23:14.000Z</time>
      </trkpt>
      <trkpt lat="42.72209" lon="-0.04733">
        <ele>2007</ele>
        <time>2025-04-06T07:23:30.000Z</time>
      </trkpt>
      <trkpt lat="42.72203" lon="-0.04751">
        <ele>2007</ele>
        <time>2025-04-06T07:23:45.000Z</time>
      </trkpt>
      <trkpt lat="42.722" lon="-0.04768">
        <ele>2009</ele>
        <time>2025-04-06T07:23:59.000Z</time>
      </trkpt>
      <trkpt lat="42.72196" lon="-0.04786">
        <ele>2010</ele>
        <time>2025-04-06T07:24:14.000Z</time>
      </trkpt>
      <trkpt lat="42.72192" lon="-0.04804">
        <ele>2011</ele>
        <time>2025-04-06T07:24:30.000Z</time>
      </trkpt>
      <trkpt lat="42.72185" lon="-0.0482">
        <ele>2012</ele>
        <time>2025-04-06T07:24:45.000Z</time>
      </trkpt>
      <trkpt lat="42.72178" lon="-0.04836">
        <ele>2014</ele>
        <time>2025-04-06T07:25:00.000Z</time>
      </trkpt>
      <trkpt lat="42.7217" lon="-0.04851">
        <ele>2017</ele>
        <time>2025-04-06T07:25:15.000Z</time>
      </trkpt>
      <trkpt lat="42.72162" lon="-0.04868">
        <ele>2018</ele>
        <time>2025-04-06T07:25:32.000Z</time>
      </trkpt>
      <trkpt lat="42.72153" lon="-0.04884">
        <ele>2019</ele>
        <time>2025-04-06T07:25:47.000Z</time>
      </trkpt>
      <trkpt lat="42.72149" lon="-0.04901">
        <ele>2020</ele>
        <time>2025-04-06T07:26:02.000Z</time>
      </trkpt>
      <trkpt lat="42.72145" lon="-0.0492">
        <ele>2021</ele>
        <time>2025-04-06T07:26:16.000Z</time>
      </trkpt>
      <trkpt lat="42.72145" lon="-0.04937">
        <ele>2023</ele>
        <time>2025-04-06T07:26:30.000Z</time>
      </trkpt>
      <trkpt lat="42.72158" lon="-0.04939">
        <ele>2025</ele>
        <time>2025-04-06T07:26:51.000Z</time>
      </trkpt>
      <trkpt lat="42.72171" lon="-0.04932">
        <ele>2027</ele>
        <time>2025-04-06T07:27:07.000Z</time>
      </trkpt>
      <trkpt lat="42.72183" lon="-0.04924">
        <ele>2029</ele>
        <time>2025-04-06T07:27:25.000Z</time>
      </trkpt>
      <trkpt lat="42.72196" lon="-0.04919">
        <ele>2031</ele>
        <time>2025-04-06T07:27:43.000Z</time>
      </trkpt>
      <trkpt lat="42.72207" lon="-0.04928">
        <ele>2032</ele>
        <time>2025-04-06T07:28:12.000Z</time>
      </trkpt>
      <trkpt lat="42.72211" lon="-0.04946">
        <ele>2033</ele>
        <time>2025-04-06T07:28:31.000Z</time>
      </trkpt>
      <trkpt lat="42.72214" lon="-0.04967">
        <ele>2034</ele>
        <time>2025-04-06T07:28:48.000Z</time>
      </trkpt>
      <trkpt lat="42.72215" lon="-0.04987">
        <ele>2036</ele>
        <time>2025-04-06T07:29:01.000Z</time>
      </trkpt>
      <trkpt lat="42.72214" lon="-0.05006">
        <ele>2036</ele>
        <time>2025-04-06T07:29:17.000Z</time>
      </trkpt>
      <trkpt lat="42.72212" lon="-0.05025">
        <ele>2036</ele>
        <time>2025-04-06T07:29:30.000Z</time>
      </trkpt>
      <trkpt lat="42.7221" lon="-0.05044">
        <ele>2036</ele>
        <time>2025-04-06T07:29:43.000Z</time>
      </trkpt>
      <trkpt lat="42.72208" lon="-0.05062">
        <ele>2038</ele>
        <time>2025-04-06T07:29:58.000Z</time>
      </trkpt>
      <trkpt lat="42.72205" lon="-0.05081">
        <ele>2039</ele>
        <time>2025-04-06T07:30:14.000Z</time>
      </trkpt>
      <trkpt lat="42.72201" lon="-0.051">
        <ele>2041</ele>
        <time>2025-04-06T07:30:31.000Z</time>
      </trkpt>
      <trkpt lat="42.72199" lon="-0.05118">
        <ele>2043</ele>
        <time>2025-04-06T07:30:47.000Z</time>
      </trkpt>
      <trkpt lat="42.72196" lon="-0.05135">
        <ele>2045</ele>
        <time>2025-04-06T07:31:04.000Z</time>
      </trkpt>
      <trkpt lat="42.72192" lon="-0.05153">
        <ele>2046</ele>
        <time>2025-04-06T07:31:26.000Z</time>
      </trkpt>
      <trkpt lat="42.72187" lon="-0.0517">
        <ele>2049</ele>
        <time>2025-04-06T07:31:47.000Z</time>
      </trkpt>
      <trkpt lat="42.72182" lon="-0.05187">
        <ele>2052</ele>
        <time>2025-04-06T07:32:08.000Z</time>
      </trkpt>
      <trkpt lat="42.72177" lon="-0.05205">
        <ele>2055</ele>
        <time>2025-04-06T07:32:28.000Z</time>
      </trkpt>
      <trkpt lat="42.7217" lon="-0.05222">
        <ele>2058</ele>
        <time>2025-04-06T07:32:46.000Z</time>
      </trkpt>
      <trkpt lat="42.72163" lon="-0.05239">
        <ele>2059</ele>
        <time>2025-04-06T07:33:03.000Z</time>
      </trkpt>
      <trkpt lat="42.72153" lon="-0.05253">
        <ele>2061</ele>
        <time>2025-04-06T07:33:19.000Z</time>
      </trkpt>
      <trkpt lat="42.72143" lon="-0.05265">
        <ele>2063</ele>
        <time>2025-04-06T07:33:39.000Z</time>
      </trkpt>
      <trkpt lat="42.72131" lon="-0.05275">
        <ele>2064</ele>
        <time>2025-04-06T07:33:57.000Z</time>
      </trkpt>
      <trkpt lat="42.7212" lon="-0.05286">
        <ele>2065</ele>
        <time>2025-04-06T07:34:11.000Z</time>
      </trkpt>
      <trkpt lat="42.7211" lon="-0.05298">
        <ele>2066</ele>
        <time>2025-04-06T07:34:26.000Z</time>
      </trkpt>
      <trkpt lat="42.72099" lon="-0.05311">
        <ele>2067</ele>
        <time>2025-04-06T07:34:43.000Z</time>
      </trkpt>
      <trkpt lat="42.72089" lon="-0.05324">
        <ele>2069</ele>
        <time>2025-04-06T07:35:01.000Z</time>
      </trkpt>
      <trkpt lat="42.72078" lon="-0.05335">
        <ele>2071</ele>
        <time>2025-04-06T07:35:21.000Z</time>
      </trkpt>
      <trkpt lat="42.72067" lon="-0.05344">
        <ele>2073</ele>
        <time>2025-04-06T07:35:40.000Z</time>
      </trkpt>
      <trkpt lat="42.72054" lon="-0.05351">
        <ele>2075</ele>
        <time>2025-04-06T07:36:02.000Z</time>
      </trkpt>
      <trkpt lat="42.72041" lon="-0.05358">
        <ele>2078</ele>
        <time>2025-04-06T07:36:20.000Z</time>
      </trkpt>
      <trkpt lat="42.72029" lon="-0.05365">
        <ele>2081</ele>
        <time>2025-04-06T07:36:38.000Z</time>
      </trkpt>
      <trkpt lat="42.72017" lon="-0.05374">
        <ele>2083</ele>
        <time>2025-04-06T07:36:57.000Z</time>
      </trkpt>
      <trkpt lat="42.72004" lon="-0.0538">
        <ele>2084</ele>
        <time>2025-04-06T07:37:15.000Z</time>
      </trkpt>
      <trkpt lat="42.71991" lon="-0.05384">
        <ele>2086</ele>
        <time>2025-04-06T07:37:33.000Z</time>
      </trkpt>
      <trkpt lat="42.71978" lon="-0.05388">
        <ele>2088</ele>
        <time>2025-04-06T07:37:51.000Z</time>
      </trkpt>
      <trkpt lat="42.71965" lon="-0.05391">
        <ele>2090</ele>
        <time>2025-04-06T07:38:10.000Z</time>
      </trkpt>
      <trkpt lat="42.71952" lon="-0.05393">
        <ele>2093</ele>
        <time>2025-04-06T07:38:28.000Z</time>
      </trkpt>
      <trkpt lat="42.71938" lon="-0.05395">
        <ele>2096</ele>
        <time>2025-04-06T07:38:47.000Z</time>
      </trkpt>
      <trkpt lat="42.71923" lon="-0.05397">
        <ele>2098</ele>
        <time>2025-04-06T07:39:10.000Z</time>
      </trkpt>
      <trkpt lat="42.7191" lon="-0.054">
        <ele>2099</ele>
        <time>2025-04-06T07:39:24.000Z</time>
      </trkpt>
      <trkpt lat="42.71895" lon="-0.054">
        <ele>2100</ele>
        <time>2025-04-06T07:39:40.000Z</time>
      </trkpt>
      <trkpt lat="42.71881" lon="-0.05399">
        <ele>2101</ele>
        <time>2025-04-06T07:39:55.000Z</time>
      </trkpt>
      <trkpt lat="42.71867" lon="-0.05399">
        <ele>2101</ele>
        <time>2025-04-06T07:40:12.000Z</time>
      </trkpt>
      <trkpt lat="42.71852" lon="-0.05399">
        <ele>2104</ele>
        <time>2025-04-06T07:40:28.000Z</time>
      </trkpt>
      <trkpt lat="42.71838" lon="-0.05398">
        <ele>2105</ele>
        <time>2025-04-06T07:40:45.000Z</time>
      </trkpt>
      <trkpt lat="42.71824" lon="-0.05394">
        <ele>2105</ele>
        <time>2025-04-06T07:40:59.000Z</time>
      </trkpt>
      <trkpt lat="42.71812" lon="-0.05387">
        <ele>2106</ele>
        <time>2025-04-06T07:41:16.000Z</time>
      </trkpt>
      <trkpt lat="42.718" lon="-0.05377">
        <ele>2108</ele>
        <time>2025-04-06T07:41:36.000Z</time>
      </trkpt>
      <trkpt lat="42.71788" lon="-0.05368">
        <ele>2109</ele>
        <time>2025-04-06T07:41:53.000Z</time>
      </trkpt>
      <trkpt lat="42.71776" lon="-0.0536">
        <ele>2112</ele>
        <time>2025-04-06T07:42:17.000Z</time>
      </trkpt>
      <trkpt lat="42.71763" lon="-0.05354">
        <ele>2115</ele>
        <time>2025-04-06T07:42:34.000Z</time>
      </trkpt>
      <trkpt lat="42.7175" lon="-0.05352">
        <ele>2118</ele>
        <time>2025-04-06T07:42:55.000Z</time>
      </trkpt>
      <trkpt lat="42.71736" lon="-0.05358">
        <ele>2122</ele>
        <time>2025-04-06T07:44:50.000Z</time>
      </trkpt>
      <trkpt lat="42.71722" lon="-0.05359">
        <ele>2124</ele>
        <time>2025-04-06T07:45:05.000Z</time>
      </trkpt>
      <trkpt lat="42.71708" lon="-0.05362">
        <ele>2126</ele>
        <time>2025-04-06T07:45:23.000Z</time>
      </trkpt>
      <trkpt lat="42.71694" lon="-0.05365">
        <ele>2129</ele>
        <time>2025-04-06T07:45:43.000Z</time>
      </trkpt>
      <trkpt lat="42.7168" lon="-0.05368">
        <ele>2131</ele>
        <time>2025-04-06T07:46:04.000Z</time>
      </trkpt>
      <trkpt lat="42.71667" lon="-0.05361">
        <ele>2134</ele>
        <time>2025-04-06T07:46:21.000Z</time>
      </trkpt>
      <trkpt lat="42.71655" lon="-0.05352">
        <ele>2135</ele>
        <time>2025-04-06T07:46:37.000Z</time>
      </trkpt>
      <trkpt lat="42.71642" lon="-0.0535">
        <ele>2138</ele>
        <time>2025-04-06T07:46:54.000Z</time>
      </trkpt>
      <trkpt lat="42.71629" lon="-0.05348">
        <ele>2140</ele>
        <time>2025-04-06T07:47:16.000Z</time>
      </trkpt>
      <trkpt lat="42.71615" lon="-0.05347">
        <ele>2141</ele>
        <time>2025-04-06T07:47:37.000Z</time>
      </trkpt>
      <trkpt lat="42.716" lon="-0.05348">
        <ele>2145</ele>
        <time>2025-04-06T07:48:02.000Z</time>
      </trkpt>
      <trkpt lat="42.71587" lon="-0.05344">
        <ele>2148</ele>
        <time>2025-04-06T07:48:24.000Z</time>
      </trkpt>
      <trkpt lat="42.71575" lon="-0.05342">
        <ele>2153</ele>
        <time>2025-04-06T07:48:48.000Z</time>
      </trkpt>
      <trkpt lat="42.71573" lon="-0.05358">
        <ele>2156</ele>
        <time>2025-04-06T07:49:17.000Z</time>
      </trkpt>
      <trkpt lat="42.71569" lon="-0.05375">
        <ele>2160</ele>
        <time>2025-04-06T07:49:40.000Z</time>
      </trkpt>
      <trkpt lat="42.71559" lon="-0.05388">
        <ele>2162</ele>
        <time>2025-04-06T07:50:33.000Z</time>
      </trkpt>
      <trkpt lat="42.71547" lon="-0.05391">
        <ele>2165</ele>
        <time>2025-04-06T07:50:51.000Z</time>
      </trkpt>
      <trkpt lat="42.71539" lon="-0.05379">
        <ele>2166</ele>
        <time>2025-04-06T07:51:09.000Z</time>
      </trkpt>
      <trkpt lat="42.7153" lon="-0.05364">
        <ele>2169</ele>
        <time>2025-04-06T07:51:31.000Z</time>
      </trkpt>
      <trkpt lat="42.71521" lon="-0.05352">
        <ele>2169</ele>
        <time>2025-04-06T07:51:49.000Z</time>
      </trkpt>
      <trkpt lat="42.71512" lon="-0.05343">
        <ele>2173</ele>
        <time>2025-04-06T07:52:09.000Z</time>
      </trkpt>
      <trkpt lat="42.71503" lon="-0.05353">
        <ele>2177</ele>
        <time>2025-04-06T07:52:28.000Z</time>
      </trkpt>
      <trkpt lat="42.71491" lon="-0.05356">
        <ele>2180</ele>
        <time>2025-04-06T07:53:00.000Z</time>
      </trkpt>
      <trkpt lat="42.71477" lon="-0.05348">
        <ele>2180</ele>
        <time>2025-04-06T07:53:19.000Z</time>
      </trkpt>
      <trkpt lat="42.71464" lon="-0.05341">
        <ele>2180</ele>
        <time>2025-04-06T07:53:27.000Z</time>
      </trkpt>
      <trkpt lat="42.71453" lon="-0.05331">
        <ele>2180</ele>
        <time>2025-04-06T07:53:42.000Z</time>
      </trkpt>
      <trkpt lat="42.71441" lon="-0.05319">
        <ele>2181</ele>
        <time>2025-04-06T07:53:57.000Z</time>
      </trkpt>
      <trkpt lat="42.71432" lon="-0.05303">
        <ele>2182</ele>
        <time>2025-04-06T07:54:16.000Z</time>
      </trkpt>
      <trkpt lat="42.71424" lon="-0.05287">
        <ele>2185</ele>
        <time>2025-04-06T07:54:40.000Z</time>
      </trkpt>
      <trkpt lat="42.71416" lon="-0.05272">
        <ele>2189</ele>
        <time>2025-04-06T07:55:09.000Z</time>
      </trkpt>
      <trkpt lat="42.71408" lon="-0.05258">
        <ele>2196</ele>
        <time>2025-04-06T07:56:05.000Z</time>
      </trkpt>
      <trkpt lat="42.71408" lon="-0.0524">
        <ele>2198</ele>
        <time>2025-04-06T07:56:28.000Z</time>
      </trkpt>
      <trkpt lat="42.71406" lon="-0.05221">
        <ele>2202</ele>
        <time>2025-04-06T07:56:50.000Z</time>
      </trkpt>
      <trkpt lat="42.71403" lon="-0.05204">
        <ele>2203</ele>
        <time>2025-04-06T07:57:08.000Z</time>
      </trkpt>
      <trkpt lat="42.71396" lon="-0.0519">
        <ele>2207</ele>
        <time>2025-04-06T07:57:31.000Z</time>
      </trkpt>
      <trkpt lat="42.71383" lon="-0.0519">
        <ele>2211</ele>
        <time>2025-04-06T07:58:56.000Z</time>
      </trkpt>
      <trkpt lat="42.7137" lon="-0.05197">
        <ele>2213</ele>
        <time>2025-04-06T07:59:15.000Z</time>
      </trkpt>
      <trkpt lat="42.71357" lon="-0.05206">
        <ele>2214</ele>
        <time>2025-04-06T07:59:35.000Z</time>
      </trkpt>
      <trkpt lat="42.71349" lon="-0.0522">
        <ele>2215</ele>
        <time>2025-04-06T07:59:51.000Z</time>
      </trkpt>
      <trkpt lat="42.7134" lon="-0.05234">
        <ele>2217</ele>
        <time>2025-04-06T08:00:08.000Z</time>
      </trkpt>
      <trkpt lat="42.7133" lon="-0.05245">
        <ele>2219</ele>
        <time>2025-04-06T08:00:25.000Z</time>
      </trkpt>
      <trkpt lat="42.71317" lon="-0.05248">
        <ele>2220</ele>
        <time>2025-04-06T08:00:42.000Z</time>
      </trkpt>
      <trkpt lat="42.71304" lon="-0.05259">
        <ele>2218</ele>
        <time>2025-04-06T08:04:06.000Z</time>
      </trkpt>
      <trkpt lat="42.71297" lon="-0.05277">
        <ele>2218</ele>
        <time>2025-04-06T08:04:17.000Z</time>
      </trkpt>
      <trkpt lat="42.71291" lon="-0.05296">
        <ele>2217</ele>
        <time>2025-04-06T08:04:31.000Z</time>
      </trkpt>
      <trkpt lat="42.71287" lon="-0.05314">
        <ele>2218</ele>
        <time>2025-04-06T08:04:47.000Z</time>
      </trkpt>
      <trkpt lat="42.7128" lon="-0.05332">
        <ele>2217</ele>
        <time>2025-04-06T08:05:04.000Z</time>
      </trkpt>
      <trkpt lat="42.71271" lon="-0.05348">
        <ele>2215</ele>
        <time>2025-04-06T08:05:12.000Z</time>
      </trkpt>
      <trkpt lat="42.71262" lon="-0.05363">
        <ele>2215</ele>
        <time>2025-04-06T08:05:25.000Z</time>
      </trkpt>
      <trkpt lat="42.71256" lon="-0.05379">
        <ele>2214</ele>
        <time>2025-04-06T08:05:38.000Z</time>
      </trkpt>
      <trkpt lat="42.71251" lon="-0.05396">
        <ele>2214</ele>
        <time>2025-04-06T08:05:51.000Z</time>
      </trkpt>
      <trkpt lat="42.71246" lon="-0.05413">
        <ele>2211</ele>
        <time>2025-04-06T08:06:04.000Z</time>
      </trkpt>
      <trkpt lat="42.71241" lon="-0.05431">
        <ele>2208</ele>
        <time>2025-04-06T08:06:19.000Z</time>
      </trkpt>
      <trkpt lat="42.71237" lon="-0.05448">
        <ele>2208</ele>
        <time>2025-04-06T08:06:30.000Z</time>
      </trkpt>
      <trkpt lat="42.71233" lon="-0.05465">
        <ele>2208</ele>
        <time>2025-04-06T08:06:42.000Z</time>
      </trkpt>
      <trkpt lat="42.7123" lon="-0.05483">
        <ele>2208</ele>
        <time>2025-04-06T08:06:56.000Z</time>
      </trkpt>
      <trkpt lat="42.71226" lon="-0.05501">
        <ele>2208</ele>
        <time>2025-04-06T08:07:08.000Z</time>
      </trkpt>
      <trkpt lat="42.71221" lon="-0.05522">
        <ele>2208</ele>
        <time>2025-04-06T08:07:23.000Z</time>
      </trkpt>
      <trkpt lat="42.71216" lon="-0.0554">
        <ele>2208</ele>
        <time>2025-04-06T08:07:35.000Z</time>
      </trkpt>
      <trkpt lat="42.7121" lon="-0.05559">
        <ele>2209</ele>
        <time>2025-04-06T08:07:49.000Z</time>
      </trkpt>
      <trkpt lat="42.71204" lon="-0.05579">
        <ele>2209</ele>
        <time>2025-04-06T08:08:04.000Z</time>
      </trkpt>
      <trkpt lat="42.71196" lon="-0.05596">
        <ele>2210</ele>
        <time>2025-04-06T08:08:18.000Z</time>
      </trkpt>
      <trkpt lat="42.71189" lon="-0.05612">
        <ele>2211</ele>
        <time>2025-04-06T08:08:34.000Z</time>
      </trkpt>
      <trkpt lat="42.7118" lon="-0.05626">
        <ele>2211</ele>
        <time>2025-04-06T08:08:49.000Z</time>
      </trkpt>
      <trkpt lat="42.71169" lon="-0.05638">
        <ele>2212</ele>
        <time>2025-04-06T08:09:04.000Z</time>
      </trkpt>
      <trkpt lat="42.71157" lon="-0.0565">
        <ele>2209</ele>
        <time>2025-04-06T08:09:21.000Z</time>
      </trkpt>
      <trkpt lat="42.71144" lon="-0.0566">
        <ele>2209</ele>
        <time>2025-04-06T08:09:37.000Z</time>
      </trkpt>
      <trkpt lat="42.71131" lon="-0.05665">
        <ele>2208</ele>
        <time>2025-04-06T08:09:49.000Z</time>
      </trkpt>
      <trkpt lat="42.71117" lon="-0.05673">
        <ele>2206</ele>
        <time>2025-04-06T08:10:01.000Z</time>
      </trkpt>
      <trkpt lat="42.71106" lon="-0.05685">
        <ele>2207</ele>
        <time>2025-04-06T08:10:15.000Z</time>
      </trkpt>
      <trkpt lat="42.71096" lon="-0.05698">
        <ele>2211</ele>
        <time>2025-04-06T08:10:32.000Z</time>
      </trkpt>
      <trkpt lat="42.71084" lon="-0.05711">
        <ele>2212</ele>
        <time>2025-04-06T08:10:48.000Z</time>
      </trkpt>
      <trkpt lat="42.71073" lon="-0.05722">
        <ele>2209</ele>
        <time>2025-04-06T08:11:04.000Z</time>
      </trkpt>
      <trkpt lat="42.71063" lon="-0.05735">
        <ele>2209</ele>
        <time>2025-04-06T08:11:19.000Z</time>
      </trkpt>
      <trkpt lat="42.71055" lon="-0.05749">
        <ele>2210</ele>
        <time>2025-04-06T08:11:33.000Z</time>
      </trkpt>
      <trkpt lat="42.71046" lon="-0.05763">
        <ele>2209</ele>
        <time>2025-04-06T08:11:48.000Z</time>
      </trkpt>
      <trkpt lat="42.71038" lon="-0.05778">
        <ele>2208</ele>
        <time>2025-04-06T08:12:03.000Z</time>
      </trkpt>
      <trkpt lat="42.71029" lon="-0.05794">
        <ele>2211</ele>
        <time>2025-04-06T08:12:19.000Z</time>
      </trkpt>
      <trkpt lat="42.71019" lon="-0.0581">
        <ele>2210</ele>
        <time>2025-04-06T08:12:34.000Z</time>
      </trkpt>
      <trkpt lat="42.71011" lon="-0.05826">
        <ele>2212</ele>
        <time>2025-04-06T08:12:50.000Z</time>
      </trkpt>
      <trkpt lat="42.71004" lon="-0.05843">
        <ele>2213</ele>
        <time>2025-04-06T08:13:06.000Z</time>
      </trkpt>
      <trkpt lat="42.70997" lon="-0.05859">
        <ele>2213</ele>
        <time>2025-04-06T08:13:22.000Z</time>
      </trkpt>
      <trkpt lat="42.70987" lon="-0.05872">
        <ele>2213</ele>
        <time>2025-04-06T08:13:38.000Z</time>
      </trkpt>
      <trkpt lat="42.70976" lon="-0.05883">
        <ele>2213</ele>
        <time>2025-04-06T08:13:55.000Z</time>
      </trkpt>
      <trkpt lat="42.70964" lon="-0.05893">
        <ele>2216</ele>
        <time>2025-04-06T08:14:14.000Z</time>
      </trkpt>
      <trkpt lat="42.70953" lon="-0.05905">
        <ele>2214</ele>
        <time>2025-04-06T08:14:34.000Z</time>
      </trkpt>
      <trkpt lat="42.70941" lon="-0.05916">
        <ele>2214</ele>
        <time>2025-04-06T08:14:50.000Z</time>
      </trkpt>
      <trkpt lat="42.70929" lon="-0.05924">
        <ele>2213</ele>
        <time>2025-04-06T08:15:04.000Z</time>
      </trkpt>
      <trkpt lat="42.70916" lon="-0.05934">
        <ele>2215</ele>
        <time>2025-04-06T08:15:24.000Z</time>
      </trkpt>
      <trkpt lat="42.70905" lon="-0.05945">
        <ele>2216</ele>
        <time>2025-04-06T08:15:40.000Z</time>
      </trkpt>
      <trkpt lat="42.70895" lon="-0.05957">
        <ele>2220</ele>
        <time>2025-04-06T08:15:57.000Z</time>
      </trkpt>
      <trkpt lat="42.70885" lon="-0.0597">
        <ele>2219</ele>
        <time>2025-04-06T08:16:19.000Z</time>
      </trkpt>
      <trkpt lat="42.70876" lon="-0.05984">
        <ele>2223</ele>
        <time>2025-04-06T08:16:36.000Z</time>
      </trkpt>
      <trkpt lat="42.70866" lon="-0.05996">
        <ele>2223</ele>
        <time>2025-04-06T08:16:58.000Z</time>
      </trkpt>
      <trkpt lat="42.70854" lon="-0.06006">
        <ele>2225</ele>
        <time>2025-04-06T08:17:15.000Z</time>
      </trkpt>
      <trkpt lat="42.70842" lon="-0.06016">
        <ele>2225</ele>
        <time>2025-04-06T08:17:34.000Z</time>
      </trkpt>
      <trkpt lat="42.70829" lon="-0.06024">
        <ele>2222</ele>
        <time>2025-04-06T08:17:57.000Z</time>
      </trkpt>
      <trkpt lat="42.70817" lon="-0.06036">
        <ele>2224</ele>
        <time>2025-04-06T08:18:12.000Z</time>
      </trkpt>
      <trkpt lat="42.70806" lon="-0.06048">
        <ele>2227</ele>
        <time>2025-04-06T08:18:27.000Z</time>
      </trkpt>
      <trkpt lat="42.70795" lon="-0.06061">
        <ele>2227</ele>
        <time>2025-04-06T08:18:46.000Z</time>
      </trkpt>
      <trkpt lat="42.70784" lon="-0.06075">
        <ele>2228</ele>
        <time>2025-04-06T08:19:05.000Z</time>
      </trkpt>
      <trkpt lat="42.70774" lon="-0.06087">
        <ele>2230</ele>
        <time>2025-04-06T08:19:23.000Z</time>
      </trkpt>
      <trkpt lat="42.70763" lon="-0.06098">
        <ele>2231</ele>
        <time>2025-04-06T08:19:43.000Z</time>
      </trkpt>
      <trkpt lat="42.70752" lon="-0.0611">
        <ele>2231</ele>
        <time>2025-04-06T08:19:57.000Z</time>
      </trkpt>
      <trkpt lat="42.70742" lon="-0.06122">
        <ele>2229</ele>
        <time>2025-04-06T08:20:15.000Z</time>
      </trkpt>
      <trkpt lat="42.70736" lon="-0.0614">
        <ele>2233</ele>
        <time>2025-04-06T08:20:37.000Z</time>
      </trkpt>
      <trkpt lat="42.7073" lon="-0.06157">
        <ele>2234</ele>
        <time>2025-04-06T08:20:55.000Z</time>
      </trkpt>
      <trkpt lat="42.70722" lon="-0.06174">
        <ele>2235</ele>
        <time>2025-04-06T08:21:12.000Z</time>
      </trkpt>
      <trkpt lat="42.70713" lon="-0.06189">
        <ele>2236</ele>
        <time>2025-04-06T08:21:34.000Z</time>
      </trkpt>
      <trkpt lat="42.70704" lon="-0.06202">
        <ele>2238</ele>
        <time>2025-04-06T08:21:53.000Z</time>
      </trkpt>
      <trkpt lat="42.70692" lon="-0.06212">
        <ele>2238</ele>
        <time>2025-04-06T08:22:13.000Z</time>
      </trkpt>
      <trkpt lat="42.70681" lon="-0.06221">
        <ele>2239</ele>
        <time>2025-04-06T08:22:44.000Z</time>
      </trkpt>
      <trkpt lat="42.70669" lon="-0.0623">
        <ele>2240</ele>
        <time>2025-04-06T08:23:05.000Z</time>
      </trkpt>
      <trkpt lat="42.70657" lon="-0.06239">
        <ele>2243</ele>
        <time>2025-04-06T08:23:30.000Z</time>
      </trkpt>
      <trkpt lat="42.70647" lon="-0.06251">
        <ele>2248</ele>
        <time>2025-04-06T08:23:52.000Z</time>
      </trkpt>
      <trkpt lat="42.70636" lon="-0.06262">
        <ele>2251</ele>
        <time>2025-04-06T08:24:13.000Z</time>
      </trkpt>
      <trkpt lat="42.70624" lon="-0.06273">
        <ele>2250</ele>
        <time>2025-04-06T08:24:31.000Z</time>
      </trkpt>
      <trkpt lat="42.70613" lon="-0.06283">
        <ele>2251</ele>
        <time>2025-04-06T08:24:57.000Z</time>
      </trkpt>
      <trkpt lat="42.70602" lon="-0.06294">
        <ele>2255</ele>
        <time>2025-04-06T08:25:21.000Z</time>
      </trkpt>
      <trkpt lat="42.7059" lon="-0.06303">
        <ele>2258</ele>
        <time>2025-04-06T08:25:43.000Z</time>
      </trkpt>
      <trkpt lat="42.70578" lon="-0.06311">
        <ele>2260</ele>
        <time>2025-04-06T08:26:07.000Z</time>
      </trkpt>
      <trkpt lat="42.70566" lon="-0.06321">
        <ele>2262</ele>
        <time>2025-04-06T08:26:27.000Z</time>
      </trkpt>
      <trkpt lat="42.70553" lon="-0.06329">
        <ele>2261</ele>
        <time>2025-04-06T08:26:50.000Z</time>
      </trkpt>
      <trkpt lat="42.70541" lon="-0.06337">
        <ele>2261</ele>
        <time>2025-04-06T08:27:13.000Z</time>
      </trkpt>
      <trkpt lat="42.70528" lon="-0.06342">
        <ele>2262</ele>
        <time>2025-04-06T08:27:31.000Z</time>
      </trkpt>
      <trkpt lat="42.70515" lon="-0.06347">
        <ele>2266</ele>
        <time>2025-04-06T08:27:52.000Z</time>
      </trkpt>
      <trkpt lat="42.70502" lon="-0.06353">
        <ele>2268</ele>
        <time>2025-04-06T08:28:31.000Z</time>
      </trkpt>
      <trkpt lat="42.7049" lon="-0.06362">
        <ele>2271</ele>
        <time>2025-04-06T08:28:50.000Z</time>
      </trkpt>
      <trkpt lat="42.70478" lon="-0.06368">
        <ele>2271</ele>
        <time>2025-04-06T08:29:08.000Z</time>
      </trkpt>
      <trkpt lat="42.70464" lon="-0.06373">
        <ele>2271</ele>
        <time>2025-04-06T08:29:30.000Z</time>
      </trkpt>
      <trkpt lat="42.7045" lon="-0.06376">
        <ele>2272</ele>
        <time>2025-04-06T08:29:47.000Z</time>
      </trkpt>
      <trkpt lat="42.70436" lon="-0.06378">
        <ele>2269</ele>
        <time>2025-04-06T08:30:01.000Z</time>
      </trkpt>
      <trkpt lat="42.70425" lon="-0.06389">
        <ele>2272</ele>
        <time>2025-04-06T08:30:22.000Z</time>
      </trkpt>
      <trkpt lat="42.70413" lon="-0.06407">
        <ele>2270</ele>
        <time>2025-04-06T08:30:35.000Z</time>
      </trkpt>
      <trkpt lat="42.70404" lon="-0.06423">
        <ele>2266</ele>
        <time>2025-04-06T08:30:47.000Z</time>
      </trkpt>
      <trkpt lat="42.70399" lon="-0.06435">
        <ele>2267</ele>
        <time>2025-04-06T08:32:13.000Z</time>
      </trkpt>
      <trkpt lat="42.70397" lon="-0.06422">
        <ele>2265</ele>
        <time>2025-04-06T08:41:54.000Z</time>
      </trkpt>
      <trkpt lat="42.70388" lon="-0.06409">
        <ele>2265</ele>
        <time>2025-04-06T08:42:08.000Z</time>
      </trkpt>
      <trkpt lat="42.70371" lon="-0.06402">
        <ele>2271</ele>
        <time>2025-04-06T08:45:16.000Z</time>
      </trkpt>
      <trkpt lat="42.70363" lon="-0.06387">
        <ele>2279</ele>
        <time>2025-04-06T08:46:12.000Z</time>
      </trkpt>
      <trkpt lat="42.7036" lon="-0.06369">
        <ele>2281</ele>
        <time>2025-04-06T08:46:34.000Z</time>
      </trkpt>
      <trkpt lat="42.70357" lon="-0.06351">
        <ele>2282</ele>
        <time>2025-04-06T08:46:58.000Z</time>
      </trkpt>
      <trkpt lat="42.70353" lon="-0.06333">
        <ele>2285</ele>
        <time>2025-04-06T08:47:21.000Z</time>
      </trkpt>
      <trkpt lat="42.70352" lon="-0.06314">
        <ele>2289</ele>
        <time>2025-04-06T08:47:50.000Z</time>
      </trkpt>
      <trkpt lat="42.7035" lon="-0.06296">
        <ele>2292</ele>
        <time>2025-04-06T08:48:12.000Z</time>
      </trkpt>
      <trkpt lat="42.7035" lon="-0.06278">
        <ele>2295</ele>
        <time>2025-04-06T08:48:44.000Z</time>
      </trkpt>
      <trkpt lat="42.70348" lon="-0.0626">
        <ele>2298</ele>
        <time>2025-04-06T08:49:17.000Z</time>
      </trkpt>
      <trkpt lat="42.70345" lon="-0.06242">
        <ele>2300</ele>
        <time>2025-04-06T08:49:38.000Z</time>
      </trkpt>
      <trkpt lat="42.70341" lon="-0.06224">
        <ele>2302</ele>
        <time>2025-04-06T08:50:03.000Z</time>
      </trkpt>
      <trkpt lat="42.70336" lon="-0.06206">
        <ele>2307</ele>
        <time>2025-04-06T08:50:25.000Z</time>
      </trkpt>
      <trkpt lat="42.70331" lon="-0.06188">
        <ele>2308</ele>
        <time>2025-04-06T08:50:46.000Z</time>
      </trkpt>
      <trkpt lat="42.70326" lon="-0.0617">
        <ele>2310</ele>
        <time>2025-04-06T08:51:05.000Z</time>
      </trkpt>
      <trkpt lat="42.70324" lon="-0.06152">
        <ele>2312</ele>
        <time>2025-04-06T08:54:29.000Z</time>
      </trkpt>
      <trkpt lat="42.70321" lon="-0.06133">
        <ele>2316</ele>
        <time>2025-04-06T08:54:43.000Z</time>
      </trkpt>
      <trkpt lat="42.7032" lon="-0.06114">
        <ele>2318</ele>
        <time>2025-04-06T08:55:00.000Z</time>
      </trkpt>
      <trkpt lat="42.70319" lon="-0.06094">
        <ele>2318</ele>
        <time>2025-04-06T08:55:22.000Z</time>
      </trkpt>
      <trkpt lat="42.70316" lon="-0.06075">
        <ele>2321</ele>
        <time>2025-04-06T08:56:19.000Z</time>
      </trkpt>
      <trkpt lat="42.70315" lon="-0.06055">
        <ele>2321</ele>
        <time>2025-04-06T08:56:34.000Z</time>
      </trkpt>
      <trkpt lat="42.70314" lon="-0.06035">
        <ele>2322</ele>
        <time>2025-04-06T08:56:52.000Z</time>
      </trkpt>
      <trkpt lat="42.70312" lon="-0.06015">
        <ele>2324</ele>
        <time>2025-04-06T08:57:09.000Z</time>
      </trkpt>
      <trkpt lat="42.70309" lon="-0.05998">
        <ele>2325</ele>
        <time>2025-04-06T08:57:26.000Z</time>
      </trkpt>
      <trkpt lat="42.70304" lon="-0.05981">
        <ele>2326</ele>
        <time>2025-04-06T08:57:40.000Z</time>
      </trkpt>
      <trkpt lat="42.70299" lon="-0.05963">
        <ele>2327</ele>
        <time>2025-04-06T08:57:54.000Z</time>
      </trkpt>
      <trkpt lat="42.70294" lon="-0.05946">
        <ele>2327</ele>
        <time>2025-04-06T08:58:07.000Z</time>
      </trkpt>
      <trkpt lat="42.70288" lon="-0.05926">
        <ele>2325</ele>
        <time>2025-04-06T08:58:22.000Z</time>
      </trkpt>
      <trkpt lat="42.70281" lon="-0.05906">
        <ele>2324</ele>
        <time>2025-04-06T08:58:34.000Z</time>
      </trkpt>
      <trkpt lat="42.70274" lon="-0.05889">
        <ele>2323</ele>
        <time>2025-04-06T08:58:44.000Z</time>
      </trkpt>
      <trkpt lat="42.7027" lon="-0.05872">
        <ele>2321</ele>
        <time>2025-04-06T08:58:55.000Z</time>
      </trkpt>
      <trkpt lat="42.70267" lon="-0.05854">
        <ele>2321</ele>
        <time>2025-04-06T08:59:22.000Z</time>
      </trkpt>
      <trkpt lat="42.70263" lon="-0.05836">
        <ele>2322</ele>
        <time>2025-04-06T08:59:33.000Z</time>
      </trkpt>
      <trkpt lat="42.70259" lon="-0.05815">
        <ele>2322</ele>
        <time>2025-04-06T08:59:46.000Z</time>
      </trkpt>
      <trkpt lat="42.70255" lon="-0.05797">
        <ele>2322</ele>
        <time>2025-04-06T08:59:58.000Z</time>
      </trkpt>
      <trkpt lat="42.70252" lon="-0.05778">
        <ele>2321</ele>
        <time>2025-04-06T09:00:09.000Z</time>
      </trkpt>
      <trkpt lat="42.7025" lon="-0.05759">
        <ele>2320</ele>
        <time>2025-04-06T09:00:20.000Z</time>
      </trkpt>
      <trkpt lat="42.70248" lon="-0.0574">
        <ele>2320</ele>
        <time>2025-04-06T09:00:31.000Z</time>
      </trkpt>
      <trkpt lat="42.70247" lon="-0.05722">
        <ele>2321</ele>
        <time>2025-04-06T09:00:41.000Z</time>
      </trkpt>
      <trkpt lat="42.70244" lon="-0.05701">
        <ele>2320</ele>
        <time>2025-04-06T09:00:53.000Z</time>
      </trkpt>
      <trkpt lat="42.70243" lon="-0.05681">
        <ele>2320</ele>
        <time>2025-04-06T09:01:06.000Z</time>
      </trkpt>
      <trkpt lat="42.70241" lon="-0.05662">
        <ele>2318</ele>
        <time>2025-04-06T09:01:16.000Z</time>
      </trkpt>
      <trkpt lat="42.70239" lon="-0.05643">
        <ele>2317</ele>
        <time>2025-04-06T09:01:27.000Z</time>
      </trkpt>
      <trkpt lat="42.70234" lon="-0.05625">
        <ele>2317</ele>
        <time>2025-04-06T09:01:40.000Z</time>
      </trkpt>
      <trkpt lat="42.70227" lon="-0.05608">
        <ele>2316</ele>
        <time>2025-04-06T09:01:53.000Z</time>
      </trkpt>
      <trkpt lat="42.7022" lon="-0.05592">
        <ele>2315</ele>
        <time>2025-04-06T09:02:02.000Z</time>
      </trkpt>
      <trkpt lat="42.70215" lon="-0.05574">
        <ele>2316</ele>
        <time>2025-04-06T09:02:12.000Z</time>
      </trkpt>
      <trkpt lat="42.70212" lon="-0.05556">
        <ele>2316</ele>
        <time>2025-04-06T09:02:23.000Z</time>
      </trkpt>
      <trkpt lat="42.7021" lon="-0.05538">
        <ele>2317</ele>
        <time>2025-04-06T09:02:34.000Z</time>
      </trkpt>
      <trkpt lat="42.70209" lon="-0.0552">
        <ele>2316</ele>
        <time>2025-04-06T09:02:45.000Z</time>
      </trkpt>
      <trkpt lat="42.7021" lon="-0.05501">
        <ele>2316</ele>
        <time>2025-04-06T09:02:58.000Z</time>
      </trkpt>
      <trkpt lat="42.7021" lon="-0.05481">
        <ele>2315</ele>
        <time>2025-04-06T09:03:11.000Z</time>
      </trkpt>
      <trkpt lat="42.70208" lon="-0.05462">
        <ele>2316</ele>
        <time>2025-04-06T09:03:22.000Z</time>
      </trkpt>
      <trkpt lat="42.70207" lon="-0.05442">
        <ele>2317</ele>
        <time>2025-04-06T09:03:36.000Z</time>
      </trkpt>
      <trkpt lat="42.70208" lon="-0.05423">
        <ele>2317</ele>
        <time>2025-04-06T09:03:48.000Z</time>
      </trkpt>
      <trkpt lat="42.70209" lon="-0.05404">
        <ele>2317</ele>
        <time>2025-04-06T09:04:01.000Z</time>
      </trkpt>
      <trkpt lat="42.70211" lon="-0.05385">
        <ele>2317</ele>
        <time>2025-04-06T09:04:16.000Z</time>
      </trkpt>
      <trkpt lat="42.70214" lon="-0.05366">
        <ele>2319</ele>
        <time>2025-04-06T09:04:28.000Z</time>
      </trkpt>
      <trkpt lat="42.70216" lon="-0.05346">
        <ele>2319</ele>
        <time>2025-04-06T09:04:42.000Z</time>
      </trkpt>
      <trkpt lat="42.70215" lon="-0.05328">
        <ele>2321</ele>
        <time>2025-04-06T09:04:55.000Z</time>
      </trkpt>
      <trkpt lat="42.70213" lon="-0.0531">
        <ele>2321</ele>
        <time>2025-04-06T09:05:35.000Z</time>
      </trkpt>
      <trkpt lat="42.70209" lon="-0.05291">
        <ele>2323</ele>
        <time>2025-04-06T09:05:49.000Z</time>
      </trkpt>
      <trkpt lat="42.70205" lon="-0.05272">
        <ele>2322</ele>
        <time>2025-04-06T09:06:03.000Z</time>
      </trkpt>
      <trkpt lat="42.70203" lon="-0.05253">
        <ele>2322</ele>
        <time>2025-04-06T09:06:17.000Z</time>
      </trkpt>
      <trkpt lat="42.70201" lon="-0.05235">
        <ele>2323</ele>
        <time>2025-04-06T09:06:32.000Z</time>
      </trkpt>
      <trkpt lat="42.702" lon="-0.05217">
        <ele>2324</ele>
        <time>2025-04-06T09:06:47.000Z</time>
      </trkpt>
      <trkpt lat="42.70202" lon="-0.05197">
        <ele>2325</ele>
        <time>2025-04-06T09:07:04.000Z</time>
      </trkpt>
      <trkpt lat="42.70205" lon="-0.05179">
        <ele>2326</ele>
        <time>2025-04-06T09:07:20.000Z</time>
      </trkpt>
      <trkpt lat="42.70209" lon="-0.0516">
        <ele>2328</ele>
        <time>2025-04-06T09:07:37.000Z</time>
      </trkpt>
      <trkpt lat="42.7021" lon="-0.05141">
        <ele>2328</ele>
        <time>2025-04-06T09:07:56.000Z</time>
      </trkpt>
      <trkpt lat="42.70209" lon="-0.05123">
        <ele>2329</ele>
        <time>2025-04-06T09:08:12.000Z</time>
      </trkpt>
      <trkpt lat="42.70206" lon="-0.05105">
        <ele>2330</ele>
        <time>2025-04-06T09:08:30.000Z</time>
      </trkpt>
      <trkpt lat="42.70203" lon="-0.05086">
        <ele>2331</ele>
        <time>2025-04-06T09:08:46.000Z</time>
      </trkpt>
      <trkpt lat="42.70201" lon="-0.05067">
        <ele>2332</ele>
        <time>2025-04-06T09:09:04.000Z</time>
      </trkpt>
      <trkpt lat="42.70199" lon="-0.05049">
        <ele>2334</ele>
        <time>2025-04-06T09:09:20.000Z</time>
      </trkpt>
      <trkpt lat="42.70197" lon="-0.0503">
        <ele>2336</ele>
        <time>2025-04-06T09:09:36.000Z</time>
      </trkpt>
      <trkpt lat="42.70196" lon="-0.05012">
        <ele>2338</ele>
        <time>2025-04-06T09:09:52.000Z</time>
      </trkpt>
      <trkpt lat="42.70193" lon="-0.04993">
        <ele>2340</ele>
        <time>2025-04-06T09:10:10.000Z</time>
      </trkpt>
      <trkpt lat="42.70187" lon="-0.04978">
        <ele>2345</ele>
        <time>2025-04-06T09:12:30.000Z</time>
      </trkpt>
      <trkpt lat="42.70186" lon="-0.04959">
        <ele>2347</ele>
        <time>2025-04-06T09:12:49.000Z</time>
      </trkpt>
      <trkpt lat="42.70185" lon="-0.0494">
        <ele>2350</ele>
        <time>2025-04-06T09:13:06.000Z</time>
      </trkpt>
      <trkpt lat="42.70184" lon="-0.04921">
        <ele>2352</ele>
        <time>2025-04-06T09:13:23.000Z</time>
      </trkpt>
      <trkpt lat="42.70185" lon="-0.04902">
        <ele>2354</ele>
        <time>2025-04-06T09:13:37.000Z</time>
      </trkpt>
      <trkpt lat="42.7019" lon="-0.04886">
        <ele>2354</ele>
        <time>2025-04-06T09:13:54.000Z</time>
      </trkpt>
      <trkpt lat="42.70189" lon="-0.04868">
        <ele>2355</ele>
        <time>2025-04-06T09:14:11.000Z</time>
      </trkpt>
      <trkpt lat="42.70188" lon="-0.04848">
        <ele>2355</ele>
        <time>2025-04-06T09:14:29.000Z</time>
      </trkpt>
      <trkpt lat="42.70191" lon="-0.04829">
        <ele>2356</ele>
        <time>2025-04-06T09:14:42.000Z</time>
      </trkpt>
      <trkpt lat="42.70195" lon="-0.04811">
        <ele>2355</ele>
        <time>2025-04-06T09:14:56.000Z</time>
      </trkpt>
      <trkpt lat="42.70199" lon="-0.04793">
        <ele>2354</ele>
        <time>2025-04-06T09:15:04.000Z</time>
      </trkpt>
      <trkpt lat="42.70197" lon="-0.04774">
        <ele>2354</ele>
        <time>2025-04-06T09:15:22.000Z</time>
      </trkpt>
      <trkpt lat="42.70192" lon="-0.04756">
        <ele>2354</ele>
        <time>2025-04-06T09:15:35.000Z</time>
      </trkpt>
      <trkpt lat="42.70184" lon="-0.04739">
        <ele>2354</ele>
        <time>2025-04-06T09:16:46.000Z</time>
      </trkpt>
      <trkpt lat="42.70177" lon="-0.04724">
        <ele>2356</ele>
        <time>2025-04-06T09:17:07.000Z</time>
      </trkpt>
      <trkpt lat="42.70171" lon="-0.04708">
        <ele>2359</ele>
        <time>2025-04-06T09:17:28.000Z</time>
      </trkpt>
      <trkpt lat="42.70165" lon="-0.04691">
        <ele>2361</ele>
        <time>2025-04-06T09:17:53.000Z</time>
      </trkpt>
      <trkpt lat="42.70159" lon="-0.04673">
        <ele>2362</ele>
        <time>2025-04-06T09:18:22.000Z</time>
      </trkpt>
      <trkpt lat="42.70153" lon="-0.04657">
        <ele>2363</ele>
        <time>2025-04-06T09:19:00.000Z</time>
      </trkpt>
      <trkpt lat="42.70148" lon="-0.0464">
        <ele>2368</ele>
        <time>2025-04-06T09:19:21.000Z</time>
      </trkpt>
      <trkpt lat="42.70144" lon="-0.04622">
        <ele>2370</ele>
        <time>2025-04-06T09:19:46.000Z</time>
      </trkpt>
      <trkpt lat="42.70142" lon="-0.04604">
        <ele>2371</ele>
        <time>2025-04-06T09:20:18.000Z</time>
      </trkpt>
      <trkpt lat="42.70139" lon="-0.04585">
        <ele>2373</ele>
        <time>2025-04-06T09:20:42.000Z</time>
      </trkpt>
      <trkpt lat="42.70136" lon="-0.04566">
        <ele>2374</ele>
        <time>2025-04-06T09:21:12.000Z</time>
      </trkpt>
      <trkpt lat="42.70133" lon="-0.04548">
        <ele>2377</ele>
        <time>2025-04-06T09:21:23.000Z</time>
      </trkpt>
      <trkpt lat="42.70128" lon="-0.0453">
        <ele>2380</ele>
        <time>2025-04-06T09:21:48.000Z</time>
      </trkpt>
      <trkpt lat="42.70125" lon="-0.04512">
        <ele>2381</ele>
        <time>2025-04-06T09:22:09.000Z</time>
      </trkpt>
      <trkpt lat="42.70123" lon="-0.04493">
        <ele>2382</ele>
        <time>2025-04-06T09:22:28.000Z</time>
      </trkpt>
      <trkpt lat="42.70121" lon="-0.04475">
        <ele>2385</ele>
        <time>2025-04-06T09:22:48.000Z</time>
      </trkpt>
      <trkpt lat="42.70119" lon="-0.04456">
        <ele>2388</ele>
        <time>2025-04-06T09:23:08.000Z</time>
      </trkpt>
      <trkpt lat="42.70116" lon="-0.04437">
        <ele>2389</ele>
        <time>2025-04-06T09:23:24.000Z</time>
      </trkpt>
      <trkpt lat="42.70111" lon="-0.04419">
        <ele>2389</ele>
        <time>2025-04-06T09:23:43.000Z</time>
      </trkpt>
      <trkpt lat="42.70106" lon="-0.04401">
        <ele>2388</ele>
        <time>2025-04-06T09:24:02.000Z</time>
      </trkpt>
      <trkpt lat="42.70102" lon="-0.04382">
        <ele>2388</ele>
        <time>2025-04-06T09:24:16.000Z</time>
      </trkpt>
      <trkpt lat="42.70098" lon="-0.04363">
        <ele>2388</ele>
        <time>2025-04-06T09:24:34.000Z</time>
      </trkpt>
      <trkpt lat="42.70093" lon="-0.04345">
        <ele>2387</ele>
        <time>2025-04-06T09:24:49.000Z</time>
      </trkpt>
      <trkpt lat="42.70087" lon="-0.04326">
        <ele>2387</ele>
        <time>2025-04-06T09:25:10.000Z</time>
      </trkpt>
      <trkpt lat="42.70082" lon="-0.04308">
        <ele>2387</ele>
        <time>2025-04-06T09:25:28.000Z</time>
      </trkpt>
      <trkpt lat="42.70078" lon="-0.0429">
        <ele>2387</ele>
        <time>2025-04-06T09:25:45.000Z</time>
      </trkpt>
      <trkpt lat="42.70073" lon="-0.04272">
        <ele>2387</ele>
        <time>2025-04-06T09:26:00.000Z</time>
      </trkpt>
      <trkpt lat="42.70068" lon="-0.04255">
        <ele>2386</ele>
        <time>2025-04-06T09:26:17.000Z</time>
      </trkpt>
      <trkpt lat="42.70065" lon="-0.04233">
        <ele>2386</ele>
        <time>2025-04-06T09:26:28.000Z</time>
      </trkpt>
      <trkpt lat="42.70061" lon="-0.04215">
        <ele>2387</ele>
        <time>2025-04-06T09:26:46.000Z</time>
      </trkpt>
      <trkpt lat="42.70059" lon="-0.04196">
        <ele>2386</ele>
        <time>2025-04-06T09:27:16.000Z</time>
      </trkpt>
      <trkpt lat="42.70055" lon="-0.04178">
        <ele>2387</ele>
        <time>2025-04-06T09:27:41.000Z</time>
      </trkpt>
      <trkpt lat="42.7005" lon="-0.04161">
        <ele>2392</ele>
        <time>2025-04-06T09:28:08.000Z</time>
      </trkpt>
      <trkpt lat="42.70051" lon="-0.04142">
        <ele>2392</ele>
        <time>2025-04-06T09:28:39.000Z</time>
      </trkpt>
      <trkpt lat="42.70051" lon="-0.04122">
        <ele>2393</ele>
        <time>2025-04-06T09:29:04.000Z</time>
      </trkpt>
      <trkpt lat="42.70053" lon="-0.04104">
        <ele>2395</ele>
        <time>2025-04-06T09:29:37.000Z</time>
      </trkpt>
      <trkpt lat="42.70053" lon="-0.04085">
        <ele>2396</ele>
        <time>2025-04-06T09:29:56.000Z</time>
      </trkpt>
      <trkpt lat="42.70053" lon="-0.04067">
        <ele>2396</ele>
        <time>2025-04-06T09:30:18.000Z</time>
      </trkpt>
      <trkpt lat="42.70053" lon="-0.04049">
        <ele>2396</ele>
        <time>2025-04-06T09:30:51.000Z</time>
      </trkpt>
      <trkpt lat="42.70051" lon="-0.0403">
        <ele>2396</ele>
        <time>2025-04-06T09:31:20.000Z</time>
      </trkpt>
      <trkpt lat="42.7005" lon="-0.04011">
        <ele>2397</ele>
        <time>2025-04-06T09:31:45.000Z</time>
      </trkpt>
      <trkpt lat="42.70048" lon="-0.03992">
        <ele>2400</ele>
        <time>2025-04-06T09:32:15.000Z</time>
      </trkpt>
      <trkpt lat="42.70045" lon="-0.03974">
        <ele>2400</ele>
        <time>2025-04-06T09:32:38.000Z</time>
      </trkpt>
      <trkpt lat="42.70043" lon="-0.03955">
        <ele>2398</ele>
        <time>2025-04-06T09:33:04.000Z</time>
      </trkpt>
      <trkpt lat="42.70043" lon="-0.03936">
        <ele>2397</ele>
        <time>2025-04-06T09:33:46.000Z</time>
      </trkpt>
      <trkpt lat="42.70045" lon="-0.03918">
        <ele>2396</ele>
        <time>2025-04-06T09:35:11.000Z</time>
      </trkpt>
      <trkpt lat="42.70045" lon="-0.039">
        <ele>2402</ele>
        <time>2025-04-06T09:36:47.000Z</time>
      </trkpt>
      <trkpt lat="42.70044" lon="-0.03882">
        <ele>2403</ele>
        <time>2025-04-06T09:37:53.000Z</time>
      </trkpt>
      <trkpt lat="42.70044" lon="-0.03863">
        <ele>2405</ele>
        <time>2025-04-06T09:38:17.000Z</time>
      </trkpt>
      <trkpt lat="42.70044" lon="-0.03844">
        <ele>2408</ele>
        <time>2025-04-06T09:38:44.000Z</time>
      </trkpt>
      <trkpt lat="42.70042" lon="-0.03825">
        <ele>2411</ele>
        <time>2025-04-06T09:39:11.000Z</time>
      </trkpt>
      <trkpt lat="42.70037" lon="-0.03808">
        <ele>2412</ele>
        <time>2025-04-06T09:39:55.000Z</time>
      </trkpt>
      <trkpt lat="42.70026" lon="-0.03799">
        <ele>2417</ele>
        <time>2025-04-06T09:40:15.000Z</time>
      </trkpt>
      <trkpt lat="42.70015" lon="-0.03788">
        <ele>2419</ele>
        <time>2025-04-06T09:42:24.000Z</time>
      </trkpt>
      <trkpt lat="42.70002" lon="-0.0378">
        <ele>2424</ele>
        <time>2025-04-06T09:42:52.000Z</time>
      </trkpt>
      <trkpt lat="42.6999" lon="-0.03772">
        <ele>2428</ele>
        <time>2025-04-06T09:43:21.000Z</time>
      </trkpt>
      <trkpt lat="42.69978" lon="-0.03762">
        <ele>2430</ele>
        <time>2025-04-06T09:43:48.000Z</time>
      </trkpt>
      <trkpt lat="42.69968" lon="-0.03755">
        <ele>2435</ele>
        <time>2025-04-06T09:44:14.000Z</time>
      </trkpt>
      <trkpt lat="42.69961" lon="-0.03767">
        <ele>2442</ele>
        <time>2025-04-06T09:45:58.000Z</time>
      </trkpt>
      <trkpt lat="42.69949" lon="-0.03765">
        <ele>2446</ele>
        <time>2025-04-06T09:47:30.000Z</time>
      </trkpt>
      <trkpt lat="42.6994" lon="-0.03753">
        <ele>2454</ele>
        <time>2025-04-06T09:48:05.000Z</time>
      </trkpt>
      <trkpt lat="42.69936" lon="-0.03736">
        <ele>2457</ele>
        <time>2025-04-06T09:48:57.000Z</time>
      </trkpt>
      <trkpt lat="42.69931" lon="-0.03719">
        <ele>2460</ele>
        <time>2025-04-06T09:49:26.000Z</time>
      </trkpt>
      <trkpt lat="42.69924" lon="-0.03704">
        <ele>2467</ele>
        <time>2025-04-06T09:49:55.000Z</time>
      </trkpt>
      <trkpt lat="42.69919" lon="-0.03689">
        <ele>2470</ele>
        <time>2025-04-06T09:50:35.000Z</time>
      </trkpt>
      <trkpt lat="42.69908" lon="-0.03693">
        <ele>2476</ele>
        <time>2025-04-06T09:52:39.000Z</time>
      </trkpt>
      <trkpt lat="42.699" lon="-0.03703">
        <ele>2482</ele>
        <time>2025-04-06T09:53:09.000Z</time>
      </trkpt>
      <trkpt lat="42.69894" lon="-0.03689">
        <ele>2485</ele>
        <time>2025-04-06T09:54:10.000Z</time>
      </trkpt>
      <trkpt lat="42.69892" lon="-0.03671">
        <ele>2489</ele>
        <time>2025-04-06T09:54:37.000Z</time>
      </trkpt>
      <trkpt lat="42.69888" lon="-0.03656">
        <ele>2492</ele>
        <time>2025-04-06T09:55:38.000Z</time>
      </trkpt>
      <trkpt lat="42.69877" lon="-0.03661">
        <ele>2499</ele>
        <time>2025-04-06T09:57:16.000Z</time>
      </trkpt>
      <trkpt lat="42.69869" lon="-0.03671">
        <ele>2506</ele>
        <time>2025-04-06T09:57:49.000Z</time>
      </trkpt>
      <trkpt lat="42.69862" lon="-0.03659">
        <ele>2511</ele>
        <time>2025-04-06T09:59:01.000Z</time>
      </trkpt>
      <trkpt lat="42.69856" lon="-0.03644">
        <ele>2511</ele>
        <time>2025-04-06T09:59:28.000Z</time>
      </trkpt>
      <trkpt lat="42.69853" lon="-0.03626">
        <ele>2515</ele>
        <time>2025-04-06T10:00:00.000Z</time>
      </trkpt>
      <trkpt lat="42.69851" lon="-0.0361">
        <ele>2521</ele>
        <time>2025-04-06T10:01:12.000Z</time>
      </trkpt>
      <trkpt lat="42.69839" lon="-0.03608">
        <ele>2527</ele>
        <time>2025-04-06T10:02:24.000Z</time>
      </trkpt>
      <trkpt lat="42.69826" lon="-0.03611">
        <ele>2529</ele>
        <time>2025-04-06T10:02:50.000Z</time>
      </trkpt>
      <trkpt lat="42.69812" lon="-0.03614">
        <ele>2534</ele>
        <time>2025-04-06T10:03:18.000Z</time>
      </trkpt>
      <trkpt lat="42.69798" lon="-0.03617">
        <ele>2537</ele>
        <time>2025-04-06T10:04:36.000Z</time>
      </trkpt>
      <trkpt lat="42.69785" lon="-0.03616">
        <ele>2542</ele>
        <time>2025-04-06T10:05:02.000Z</time>
      </trkpt>
      <trkpt lat="42.69774" lon="-0.03608">
        <ele>2547</ele>
        <time>2025-04-06T10:05:28.000Z</time>
      </trkpt>
      <trkpt lat="42.69767" lon="-0.03593">
        <ele>2551</ele>
        <time>2025-04-06T10:05:58.000Z</time>
      </trkpt>
      <trkpt lat="42.69758" lon="-0.03581">
        <ele>2555</ele>
        <time>2025-04-06T10:07:11.000Z</time>
      </trkpt>
      <trkpt lat="42.69747" lon="-0.03569">
        <ele>2562</ele>
        <time>2025-04-06T10:07:43.000Z</time>
      </trkpt>
      <trkpt lat="42.69737" lon="-0.03557">
        <ele>2567</ele>
        <time>2025-04-06T10:08:10.000Z</time>
      </trkpt>
      <trkpt lat="42.69732" lon="-0.03544">
        <ele>2570</ele>
        <time>2025-04-06T10:08:40.000Z</time>
      </trkpt>
      <trkpt lat="42.69741" lon="-0.03534">
        <ele>2571</ele>
        <time>2025-04-06T10:09:15.000Z</time>
      </trkpt>
      <trkpt lat="42.69744" lon="-0.03518">
        <ele>2573</ele>
        <time>2025-04-06T10:10:20.000Z</time>
      </trkpt>
      <trkpt lat="42.69737" lon="-0.03503">
        <ele>2578</ele>
        <time>2025-04-06T10:10:56.000Z</time>
      </trkpt>
      <trkpt lat="42.6973" lon="-0.03489">
        <ele>2584</ele>
        <time>2025-04-06T10:12:53.000Z</time>
      </trkpt>
      <trkpt lat="42.69718" lon="-0.03485">
        <ele>2585</ele>
        <time>2025-04-06T10:13:59.000Z</time>
      </trkpt>
      <trkpt lat="42.69705" lon="-0.0348">
        <ele>2590</ele>
        <time>2025-04-06T10:15:22.000Z</time>
      </trkpt>
      <trkpt lat="42.69693" lon="-0.03473">
        <ele>2593</ele>
        <time>2025-04-06T10:15:48.000Z</time>
      </trkpt>
      <trkpt lat="42.69681" lon="-0.03465">
        <ele>2598</ele>
        <time>2025-04-06T10:16:15.000Z</time>
      </trkpt>
      <trkpt lat="42.6967" lon="-0.03453">
        <ele>2598</ele>
        <time>2025-04-06T10:16:40.000Z</time>
      </trkpt>
      <trkpt lat="42.6966" lon="-0.03439">
        <ele>2598</ele>
        <time>2025-04-06T10:17:04.000Z</time>
      </trkpt>
      <trkpt lat="42.69652" lon="-0.03425">
        <ele>2599</ele>
        <time>2025-04-06T10:17:36.000Z</time>
      </trkpt>
      <trkpt lat="42.69642" lon="-0.03411">
        <ele>2598</ele>
        <time>2025-04-06T10:18:00.000Z</time>
      </trkpt>
      <trkpt lat="42.69633" lon="-0.03397">
        <ele>2595</ele>
        <time>2025-04-06T10:18:20.000Z</time>
      </trkpt>
      <trkpt lat="42.69623" lon="-0.03385">
        <ele>2593</ele>
        <time>2025-04-06T10:19:32.000Z</time>
      </trkpt>
      <trkpt lat="42.6961" lon="-0.03379">
        <ele>2596</ele>
        <time>2025-04-06T10:19:56.000Z</time>
      </trkpt>
      <trkpt lat="42.69597" lon="-0.03377">
        <ele>2595</ele>
        <time>2025-04-06T10:20:31.000Z</time>
      </trkpt>
      <trkpt lat="42.69583" lon="-0.03377">
        <ele>2594</ele>
        <time>2025-04-06T10:21:49.000Z</time>
      </trkpt>
      <trkpt lat="42.69569" lon="-0.03381">
        <ele>2594</ele>
        <time>2025-04-06T10:22:00.000Z</time>
      </trkpt>
      <trkpt lat="42.69556" lon="-0.03383">
        <ele>2593</ele>
        <time>2025-04-06T10:22:22.000Z</time>
      </trkpt>
      <trkpt lat="42.69542" lon="-0.03381">
        <ele>2593</ele>
        <time>2025-04-06T10:23:06.000Z</time>
      </trkpt>
      <trkpt lat="42.69528" lon="-0.03379">
        <ele>2596</ele>
        <time>2025-04-06T10:23:27.000Z</time>
      </trkpt>
      <trkpt lat="42.69515" lon="-0.03375">
        <ele>2599</ele>
        <time>2025-04-06T10:24:00.000Z</time>
      </trkpt>
      <trkpt lat="42.69502" lon="-0.03368">
        <ele>2604</ele>
        <time>2025-04-06T10:24:32.000Z</time>
      </trkpt>
      <trkpt lat="42.69491" lon="-0.03362">
        <ele>2608</ele>
        <time>2025-04-06T10:25:09.000Z</time>
      </trkpt>
      <trkpt lat="42.69485" lon="-0.03374">
        <ele>2613</ele>
        <time>2025-04-06T10:26:29.000Z</time>
      </trkpt>
      <trkpt lat="42.69473" lon="-0.03381">
        <ele>2621</ele>
        <time>2025-04-06T10:28:36.000Z</time>
      </trkpt>
      <trkpt lat="42.69461" lon="-0.03378">
        <ele>2625</ele>
        <time>2025-04-06T10:29:57.000Z</time>
      </trkpt>
      <trkpt lat="42.6945" lon="-0.03384">
        <ele>2631</ele>
        <time>2025-04-06T10:30:37.000Z</time>
      </trkpt>
      <trkpt lat="42.69436" lon="-0.03383">
        <ele>2639</ele>
        <time>2025-04-06T10:31:37.000Z</time>
      </trkpt>
      <trkpt lat="42.69425" lon="-0.03382">
        <ele>2642</ele>
        <time>2025-04-06T10:32:08.000Z</time>
      </trkpt>
      <trkpt lat="42.69426" lon="-0.03394">
        <ele>2646</ele>
        <time>2025-04-06T10:33:11.000Z</time>
      </trkpt>
      <trkpt lat="42.69417" lon="-0.03397">
        <ele>2651</ele>
        <time>2025-04-06T10:33:58.000Z</time>
      </trkpt>
      <trkpt lat="42.69417" lon="-0.0341">
        <ele>2653</ele>
        <time>2025-04-06T10:35:14.000Z</time>
      </trkpt>
      <trkpt lat="42.69406" lon="-0.0341">
        <ele>2661</ele>
        <time>2025-04-06T10:36:15.000Z</time>
      </trkpt>
      <trkpt lat="42.69397" lon="-0.03402">
        <ele>2665</ele>
        <time>2025-04-06T10:36:39.000Z</time>
      </trkpt>
      <trkpt lat="42.69397" lon="-0.03416">
        <ele>2667</ele>
        <time>2025-04-06T10:37:57.000Z</time>
      </trkpt>
      <trkpt lat="42.69395" lon="-0.03434">
        <ele>2670</ele>
        <time>2025-04-06T10:38:19.000Z</time>
      </trkpt>
      <trkpt lat="42.69391" lon="-0.03448">
        <ele>2675</ele>
        <time>2025-04-06T10:38:49.000Z</time>
      </trkpt>
      <trkpt lat="42.69383" lon="-0.03439">
        <ele>2677</ele>
        <time>2025-04-06T10:40:03.000Z</time>
      </trkpt>
      <trkpt lat="42.69371" lon="-0.03437">
        <ele>2684</ele>
        <time>2025-04-06T10:42:17.000Z</time>
      </trkpt>
      <trkpt lat="42.69362" lon="-0.03446">
        <ele>2697</ele>
        <time>2025-04-06T10:43:59.000Z</time>
      </trkpt>
      <trkpt lat="42.69355" lon="-0.03433">
        <ele>2699</ele>
        <time>2025-04-06T10:44:29.000Z</time>
      </trkpt>
      <trkpt lat="42.69348" lon="-0.03422">
        <ele>2702</ele>
        <time>2025-04-06T10:44:57.000Z</time>
      </trkpt>
      <trkpt lat="42.69344" lon="-0.03432">
        <ele>2706</ele>
        <time>2025-04-06T10:46:25.000Z</time>
      </trkpt>
      <trkpt lat="42.69335" lon="-0.03421">
        <ele>2711</ele>
        <time>2025-04-06T10:47:33.000Z</time>
      </trkpt>
      <trkpt lat="42.69325" lon="-0.0341">
        <ele>2713</ele>
        <time>2025-04-06T10:48:06.000Z</time>
      </trkpt>
      <trkpt lat="42.69314" lon="-0.03405">
        <ele>2717</ele>
        <time>2025-04-06T10:49:38.000Z</time>
      </trkpt>
      <trkpt lat="42.69309" lon="-0.03417">
        <ele>2722</ele>
        <time>2025-04-06T10:50:25.000Z</time>
      </trkpt>
      <trkpt lat="42.69297" lon="-0.03416">
        <ele>2728</ele>
        <time>2025-04-06T10:51:07.000Z</time>
      </trkpt>
      <trkpt lat="42.69285" lon="-0.03421">
        <ele>2732</ele>
        <time>2025-04-06T10:51:36.000Z</time>
      </trkpt>
      <trkpt lat="42.69273" lon="-0.03431">
        <ele>2734</ele>
        <time>2025-04-06T10:52:00.000Z</time>
      </trkpt>
      <trkpt lat="42.69264" lon="-0.03446">
        <ele>2735</ele>
        <time>2025-04-06T10:52:31.000Z</time>
      </trkpt>
      <trkpt lat="42.69258" lon="-0.03464">
        <ele>2735</ele>
        <time>2025-04-06T10:52:49.000Z</time>
      </trkpt>
      <trkpt lat="42.6925" lon="-0.0348">
        <ele>2737</ele>
        <time>2025-04-06T10:53:08.000Z</time>
      </trkpt>
      <trkpt lat="42.69243" lon="-0.03497">
        <ele>2741</ele>
        <time>2025-04-06T10:53:24.000Z</time>
      </trkpt>
      <trkpt lat="42.69236" lon="-0.03512">
        <ele>2744</ele>
        <time>2025-04-06T10:53:45.000Z</time>
      </trkpt>
      <trkpt lat="42.69227" lon="-0.03523">
        <ele>2747</ele>
        <time>2025-04-06T10:54:05.000Z</time>
      </trkpt>
      <trkpt lat="42.69214" lon="-0.03521">
        <ele>2749</ele>
        <time>2025-04-06T10:54:57.000Z</time>
      </trkpt>
      <trkpt lat="42.69202" lon="-0.03516">
        <ele>2751</ele>
        <time>2025-04-06T10:55:18.000Z</time>
      </trkpt>
      <trkpt lat="42.69189" lon="-0.03507">
        <ele>2760</ele>
        <time>2025-04-06T10:56:59.000Z</time>
      </trkpt>
      <trkpt lat="42.69177" lon="-0.03499">
        <ele>2764</ele>
        <time>2025-04-06T10:57:17.000Z</time>
      </trkpt>
      <trkpt lat="42.69169" lon="-0.03485">
        <ele>2767</ele>
        <time>2025-04-06T10:57:40.000Z</time>
      </trkpt>
      <trkpt lat="42.69162" lon="-0.03475">
        <ele>2771</ele>
        <time>2025-04-06T10:58:28.000Z</time>
      </trkpt>
      <trkpt lat="42.69164" lon="-0.0349">
        <ele>2772</ele>
        <time>2025-04-06T10:59:22.000Z</time>
      </trkpt>
      <trkpt lat="42.69164" lon="-0.03504">
        <ele>2775</ele>
        <time>2025-04-06T10:59:46.000Z</time>
      </trkpt>
      <trkpt lat="42.69155" lon="-0.03497">
        <ele>2783</ele>
        <time>2025-04-06T11:03:33.000Z</time>
      </trkpt>
      <trkpt lat="42.69148" lon="-0.03482">
        <ele>2786</ele>
        <time>2025-04-06T11:04:37.000Z</time>
      </trkpt>
      <trkpt lat="42.6914" lon="-0.03467">
        <ele>2784</ele>
        <time>2025-04-06T11:04:59.000Z</time>
      </trkpt>
      <trkpt lat="42.69135" lon="-0.03449">
        <ele>2787</ele>
        <time>2025-04-06T11:06:01.000Z</time>
      </trkpt>
      <trkpt lat="42.69133" lon="-0.03434">
        <ele>2785</ele>
        <time>2025-04-06T11:07:26.000Z</time>
      </trkpt>
      <trkpt lat="42.69129" lon="-0.03442">
        <ele>2788</ele>
        <time>2025-04-06T11:09:01.000Z</time>
      </trkpt>
      <trkpt lat="42.69124" lon="-0.0343">
        <ele>2789</ele>
        <time>2025-04-06T11:10:47.000Z</time>
      </trkpt>
      <trkpt lat="42.69118" lon="-0.03414">
        <ele>2789</ele>
        <time>2025-04-06T11:12:23.000Z</time>
      </trkpt>
      <trkpt lat="42.69107" lon="-0.03411">
        <ele>2795</ele>
        <time>2025-04-06T11:21:41.000Z</time>
      </trkpt>
      <trkpt lat="42.69104" lon="-0.03395">
        <ele>2793</ele>
        <time>2025-04-06T11:23:02.000Z</time>
      </trkpt>
      <trkpt lat="42.69098" lon="-0.03384">
        <ele>2791</ele>
        <time>2025-04-06T11:29:41.000Z</time>
      </trkpt>
      <trkpt lat="42.69106" lon="-0.03393">
        <ele>2793</ele>
        <time>2025-04-06T11:51:38.000Z</time>
      </trkpt>
      <trkpt lat="42.69113" lon="-0.03407">
        <ele>2791</ele>
        <time>2025-04-06T11:55:46.000Z</time>
      </trkpt>
      <trkpt lat="42.69118" lon="-0.03424">
        <ele>2791</ele>
        <time>2025-04-06T11:57:57.000Z</time>
      </trkpt>
      <trkpt lat="42.69125" lon="-0.03439">
        <ele>2790</ele>
        <time>2025-04-06T11:58:27.000Z</time>
      </trkpt>
      <trkpt lat="42.69136" lon="-0.03452">
        <ele>2787</ele>
        <time>2025-04-06T12:00:23.000Z</time>
      </trkpt>
      <trkpt lat="42.69148" lon="-0.0346">
        <ele>2776</ele>
        <time>2025-04-06T12:00:53.000Z</time>
      </trkpt>
      <trkpt lat="42.69163" lon="-0.03462">
        <ele>2767</ele>
        <time>2025-04-06T12:01:44.000Z</time>
      </trkpt>
      <trkpt lat="42.69177" lon="-0.0346">
        <ele>2756</ele>
        <time>2025-04-06T12:02:32.000Z</time>
      </trkpt>
      <trkpt lat="42.69192" lon="-0.0346">
        <ele>2749</ele>
        <time>2025-04-06T12:02:53.000Z</time>
      </trkpt>
      <trkpt lat="42.69207" lon="-0.03462">
        <ele>2741</ele>
        <time>2025-04-06T12:03:08.000Z</time>
      </trkpt>
      <trkpt lat="42.6922" lon="-0.03459">
        <ele>2736</ele>
        <time>2025-04-06T12:03:23.000Z</time>
      </trkpt>
      <trkpt lat="42.69233" lon="-0.03451">
        <ele>2732</ele>
        <time>2025-04-06T12:03:41.000Z</time>
      </trkpt>
      <trkpt lat="42.69246" lon="-0.03437">
        <ele>2731</ele>
        <time>2025-04-06T12:04:16.000Z</time>
      </trkpt>
      <trkpt lat="42.69254" lon="-0.03422">
        <ele>2733</ele>
        <time>2025-04-06T12:05:07.000Z</time>
      </trkpt>
      <trkpt lat="42.69268" lon="-0.03412">
        <ele>2733</ele>
        <time>2025-04-06T12:07:45.000Z</time>
      </trkpt>
      <trkpt lat="42.69285" lon="-0.03415">
        <ele>2731</ele>
        <time>2025-04-06T12:07:54.000Z</time>
      </trkpt>
      <trkpt lat="42.69304" lon="-0.03406">
        <ele>2725</ele>
        <time>2025-04-06T12:10:16.000Z</time>
      </trkpt>
      <trkpt lat="42.69321" lon="-0.03413">
        <ele>2716</ele>
        <time>2025-04-06T12:10:20.000Z</time>
      </trkpt>
      <trkpt lat="42.6933" lon="-0.03426">
        <ele>2714</ele>
        <time>2025-04-06T12:10:50.000Z</time>
      </trkpt>
      <trkpt lat="42.69343" lon="-0.03429">
        <ele>2706</ele>
        <time>2025-04-06T12:10:59.000Z</time>
      </trkpt>
      <trkpt lat="42.69352" lon="-0.03417">
        <ele>2699</ele>
        <time>2025-04-06T12:11:08.000Z</time>
      </trkpt>
      <trkpt lat="42.69365" lon="-0.03427">
        <ele>2692</ele>
        <time>2025-04-06T12:11:14.000Z</time>
      </trkpt>
      <trkpt lat="42.69375" lon="-0.0344">
        <ele>2682</ele>
        <time>2025-04-06T12:11:20.000Z</time>
      </trkpt>
      <trkpt lat="42.69378" lon="-0.03421">
        <ele>2677</ele>
        <time>2025-04-06T12:11:26.000Z</time>
      </trkpt>
      <trkpt lat="42.69379" lon="-0.03401">
        <ele>2674</ele>
        <time>2025-04-06T12:11:44.000Z</time>
      </trkpt>
      <trkpt lat="42.69384" lon="-0.03381">
        <ele>2667</ele>
        <time>2025-04-06T12:11:53.000Z</time>
      </trkpt>
      <trkpt lat="42.694" lon="-0.0337">
        <ele>2655</ele>
        <time>2025-04-06T12:12:02.000Z</time>
      </trkpt>
      <trkpt lat="42.69415" lon="-0.0336">
        <ele>2644</ele>
        <time>2025-04-06T12:12:08.000Z</time>
      </trkpt>
      <trkpt lat="42.69427" lon="-0.03364">
        <ele>2638</ele>
        <time>2025-04-06T12:12:11.000Z</time>
      </trkpt>
      <trkpt lat="42.69443" lon="-0.03355">
        <ele>2628</ele>
        <time>2025-04-06T12:12:17.000Z</time>
      </trkpt>
      <trkpt lat="42.69462" lon="-0.03342">
        <ele>2613</ele>
        <time>2025-04-06T12:12:23.000Z</time>
      </trkpt>
      <trkpt lat="42.69484" lon="-0.0335">
        <ele>2607</ele>
        <time>2025-04-06T12:12:26.000Z</time>
      </trkpt>
      <trkpt lat="42.69501" lon="-0.03361">
        <ele>2604</ele>
        <time>2025-04-06T12:12:29.000Z</time>
      </trkpt>
      <trkpt lat="42.69522" lon="-0.03371">
        <ele>2597</ele>
        <time>2025-04-06T12:12:44.000Z</time>
      </trkpt>
      <trkpt lat="42.69544" lon="-0.03381">
        <ele>2593</ele>
        <time>2025-04-06T12:12:47.000Z</time>
      </trkpt>
      <trkpt lat="42.69565" lon="-0.03389">
        <ele>2595</ele>
        <time>2025-04-06T12:12:50.000Z</time>
      </trkpt>
      <trkpt lat="42.69581" lon="-0.03384">
        <ele>2596</ele>
        <time>2025-04-06T12:12:53.000Z</time>
      </trkpt>
      <trkpt lat="42.69591" lon="-0.03374">
        <ele>2593</ele>
        <time>2025-04-06T12:12:56.000Z</time>
      </trkpt>
      <trkpt lat="42.69604" lon="-0.03375">
        <ele>2594</ele>
        <time>2025-04-06T12:13:47.000Z</time>
      </trkpt>
      <trkpt lat="42.69617" lon="-0.03382">
        <ele>2596</ele>
        <time>2025-04-06T12:14:11.000Z</time>
      </trkpt>
      <trkpt lat="42.6963" lon="-0.03394">
        <ele>2595</ele>
        <time>2025-04-06T12:14:41.000Z</time>
      </trkpt>
      <trkpt lat="42.69641" lon="-0.03406">
        <ele>2596</ele>
        <time>2025-04-06T12:15:01.000Z</time>
      </trkpt>
      <trkpt lat="42.69651" lon="-0.03419">
        <ele>2596</ele>
        <time>2025-04-06T12:15:43.000Z</time>
      </trkpt>
      <trkpt lat="42.6966" lon="-0.03435">
        <ele>2597</ele>
        <time>2025-04-06T12:16:27.000Z</time>
      </trkpt>
      <trkpt lat="42.6967" lon="-0.03449">
        <ele>2596</ele>
        <time>2025-04-06T12:16:38.000Z</time>
      </trkpt>
      <trkpt lat="42.69683" lon="-0.03466">
        <ele>2597</ele>
        <time>2025-04-06T12:16:53.000Z</time>
      </trkpt>
      <trkpt lat="42.69705" lon="-0.0348">
        <ele>2590</ele>
        <time>2025-04-06T12:17:00.000Z</time>
      </trkpt>
      <trkpt lat="42.69723" lon="-0.03487">
        <ele>2585</ele>
        <time>2025-04-06T12:17:17.000Z</time>
      </trkpt>
      <trkpt lat="42.69714" lon="-0.035">
        <ele>2581</ele>
        <time>2025-04-06T12:29:27.000Z</time>
      </trkpt>
      <trkpt lat="42.69712" lon="-0.0352">
        <ele>2575</ele>
        <time>2025-04-06T12:29:36.000Z</time>
      </trkpt>
      <trkpt lat="42.69709" lon="-0.03538">
        <ele>2578</ele>
        <time>2025-04-06T12:29:39.000Z</time>
      </trkpt>
      <trkpt lat="42.69717" lon="-0.03554">
        <ele>2574</ele>
        <time>2025-04-06T12:29:45.000Z</time>
      </trkpt>
      <trkpt lat="42.69733" lon="-0.03558">
        <ele>2567</ele>
        <time>2025-04-06T12:29:48.000Z</time>
      </trkpt>
      <trkpt lat="42.6975" lon="-0.03564">
        <ele>2562</ele>
        <time>2025-04-06T12:29:51.000Z</time>
      </trkpt>
      <trkpt lat="42.69766" lon="-0.0357">
        <ele>2556</ele>
        <time>2025-04-06T12:29:54.000Z</time>
      </trkpt>
      <trkpt lat="42.6978" lon="-0.0358">
        <ele>2550</ele>
        <time>2025-04-06T12:29:57.000Z</time>
      </trkpt>
      <trkpt lat="42.69794" lon="-0.03591">
        <ele>2543</ele>
        <time>2025-04-06T12:30:00.000Z</time>
      </trkpt>
      <trkpt lat="42.69814" lon="-0.03605">
        <ele>2534</ele>
        <time>2025-04-06T12:30:06.000Z</time>
      </trkpt>
      <trkpt lat="42.69827" lon="-0.03604">
        <ele>2529</ele>
        <time>2025-04-06T12:30:12.000Z</time>
      </trkpt>
      <trkpt lat="42.69841" lon="-0.03607">
        <ele>2526</ele>
        <time>2025-04-06T12:33:27.000Z</time>
      </trkpt>
      <trkpt lat="42.69857" lon="-0.03617">
        <ele>2516</ele>
        <time>2025-04-06T12:33:32.000Z</time>
      </trkpt>
      <trkpt lat="42.69873" lon="-0.03617">
        <ele>2510</ele>
        <time>2025-04-06T12:33:40.000Z</time>
      </trkpt>
      <trkpt lat="42.69886" lon="-0.03624">
        <ele>2499</ele>
        <time>2025-04-06T12:33:44.000Z</time>
      </trkpt>
      <trkpt lat="42.69894" lon="-0.0364">
        <ele>2493</ele>
        <time>2025-04-06T12:33:51.000Z</time>
      </trkpt>
      <trkpt lat="42.69898" lon="-0.0366">
        <ele>2484</ele>
        <time>2025-04-06T12:33:57.000Z</time>
      </trkpt>
      <trkpt lat="42.699" lon="-0.03678">
        <ele>2480</ele>
        <time>2025-04-06T12:34:24.000Z</time>
      </trkpt>
      <trkpt lat="42.69912" lon="-0.03688">
        <ele>2473</ele>
        <time>2025-04-06T12:34:33.000Z</time>
      </trkpt>
      <trkpt lat="42.69918" lon="-0.03705">
        <ele>2471</ele>
        <time>2025-04-06T12:34:36.000Z</time>
      </trkpt>
      <trkpt lat="42.69923" lon="-0.03724">
        <ele>2465</ele>
        <time>2025-04-06T12:34:39.000Z</time>
      </trkpt>
      <trkpt lat="42.69927" lon="-0.03744">
        <ele>2462</ele>
        <time>2025-04-06T12:34:42.000Z</time>
      </trkpt>
      <trkpt lat="42.69934" lon="-0.03764">
        <ele>2459</ele>
        <time>2025-04-06T12:35:18.000Z</time>
      </trkpt>
      <trkpt lat="42.69945" lon="-0.03756">
        <ele>2450</ele>
        <time>2025-04-06T12:35:30.000Z</time>
      </trkpt>
      <trkpt lat="42.69965" lon="-0.03773">
        <ele>2441</ele>
        <time>2025-04-06T12:35:36.000Z</time>
      </trkpt>
      <trkpt lat="42.69981" lon="-0.03791">
        <ele>2435</ele>
        <time>2025-04-06T12:35:39.000Z</time>
      </trkpt>
      <trkpt lat="42.69994" lon="-0.03806">
        <ele>2434</ele>
        <time>2025-04-06T12:35:42.000Z</time>
      </trkpt>
      <trkpt lat="42.70007" lon="-0.03816">
        <ele>2428</ele>
        <time>2025-04-06T12:36:00.000Z</time>
      </trkpt>
      <trkpt lat="42.70021" lon="-0.03807">
        <ele>2421</ele>
        <time>2025-04-06T12:36:06.000Z</time>
      </trkpt>
      <trkpt lat="42.70033" lon="-0.03814">
        <ele>2415</ele>
        <time>2025-04-06T12:36:12.000Z</time>
      </trkpt>
      <trkpt lat="42.70045" lon="-0.03806">
        <ele>2408</ele>
        <time>2025-04-06T12:46:27.000Z</time>
      </trkpt>
      <trkpt lat="42.70054" lon="-0.03818">
        <ele>2402</ele>
        <time>2025-04-06T12:46:36.000Z</time>
      </trkpt>
      <trkpt lat="42.70069" lon="-0.03819">
        <ele>2391</ele>
        <time>2025-04-06T12:46:42.000Z</time>
      </trkpt>
      <trkpt lat="42.70087" lon="-0.03816">
        <ele>2380</ele>
        <time>2025-04-06T12:46:48.000Z</time>
      </trkpt>
      <trkpt lat="42.70103" lon="-0.0382">
        <ele>2369</ele>
        <time>2025-04-06T12:46:54.000Z</time>
      </trkpt>
      <trkpt lat="42.70115" lon="-0.03834">
        <ele>2361</ele>
        <time>2025-04-06T12:47:00.000Z</time>
      </trkpt>
      <trkpt lat="42.70126" lon="-0.03827">
        <ele>2355</ele>
        <time>2025-04-06T12:47:03.000Z</time>
      </trkpt>
      <trkpt lat="42.70144" lon="-0.03825">
        <ele>2340</ele>
        <time>2025-04-06T12:47:09.000Z</time>
      </trkpt>
      <trkpt lat="42.70156" lon="-0.03807">
        <ele>2334</ele>
        <time>2025-04-06T12:47:30.000Z</time>
      </trkpt>
      <trkpt lat="42.70174" lon="-0.03797">
        <ele>2323</ele>
        <time>2025-04-06T12:47:36.000Z</time>
      </trkpt>
      <trkpt lat="42.70193" lon="-0.03791">
        <ele>2312</ele>
        <time>2025-04-06T12:47:42.000Z</time>
      </trkpt>
      <trkpt lat="42.70209" lon="-0.03783">
        <ele>2302</ele>
        <time>2025-04-06T12:47:48.000Z</time>
      </trkpt>
      <trkpt lat="42.70227" lon="-0.03774">
        <ele>2289</ele>
        <time>2025-04-06T12:48:12.000Z</time>
      </trkpt>
      <trkpt lat="42.70245" lon="-0.03763">
        <ele>2278</ele>
        <time>2025-04-06T12:48:18.000Z</time>
      </trkpt>
      <trkpt lat="42.7026" lon="-0.03765">
        <ele>2271</ele>
        <time>2025-04-06T12:48:21.000Z</time>
      </trkpt>
      <trkpt lat="42.7028" lon="-0.03768">
        <ele>2260</ele>
        <time>2025-04-06T12:48:27.000Z</time>
      </trkpt>
      <trkpt lat="42.70293" lon="-0.03761">
        <ele>2256</ele>
        <time>2025-04-06T12:48:30.000Z</time>
      </trkpt>
      <trkpt lat="42.70306" lon="-0.03763">
        <ele>2248</ele>
        <time>2025-04-06T12:48:33.000Z</time>
      </trkpt>
      <trkpt lat="42.70319" lon="-0.03749">
        <ele>2239</ele>
        <time>2025-04-06T12:49:48.000Z</time>
      </trkpt>
      <trkpt lat="42.70329" lon="-0.0376">
        <ele>2232</ele>
        <time>2025-04-06T12:49:51.000Z</time>
      </trkpt>
      <trkpt lat="42.70335" lon="-0.03778">
        <ele>2227</ele>
        <time>2025-04-06T12:50:39.000Z</time>
      </trkpt>
      <trkpt lat="42.70333" lon="-0.038">
        <ele>2225</ele>
        <time>2025-04-06T12:50:48.000Z</time>
      </trkpt>
      <trkpt lat="42.70329" lon="-0.03823">
        <ele>2221</ele>
        <time>2025-04-06T12:50:54.000Z</time>
      </trkpt>
      <trkpt lat="42.70323" lon="-0.0384">
        <ele>2222</ele>
        <time>2025-04-06T12:51:27.000Z</time>
      </trkpt>
      <trkpt lat="42.70327" lon="-0.03864">
        <ele>2215</ele>
        <time>2025-04-06T12:52:03.000Z</time>
      </trkpt>
      <trkpt lat="42.70332" lon="-0.03885">
        <ele>2208</ele>
        <time>2025-04-06T12:52:06.000Z</time>
      </trkpt>
      <trkpt lat="42.7034" lon="-0.039">
        <ele>2202</ele>
        <time>2025-04-06T12:52:09.000Z</time>
      </trkpt>
      <trkpt lat="42.70353" lon="-0.03882">
        <ele>2193</ele>
        <time>2025-04-06T12:52:39.000Z</time>
      </trkpt>
      <trkpt lat="42.70366" lon="-0.03853">
        <ele>2186</ele>
        <time>2025-04-06T12:52:45.000Z</time>
      </trkpt>
      <trkpt lat="42.70374" lon="-0.03834">
        <ele>2181</ele>
        <time>2025-04-06T12:52:51.000Z</time>
      </trkpt>
      <trkpt lat="42.70382" lon="-0.03818">
        <ele>2174</ele>
        <time>2025-04-06T12:53:12.000Z</time>
      </trkpt>
      <trkpt lat="42.704" lon="-0.03807">
        <ele>2165</ele>
        <time>2025-04-06T12:53:18.000Z</time>
      </trkpt>
      <trkpt lat="42.70421" lon="-0.03796">
        <ele>2156</ele>
        <time>2025-04-06T12:53:24.000Z</time>
      </trkpt>
      <trkpt lat="42.70432" lon="-0.03782">
        <ele>2151</ele>
        <time>2025-04-06T12:53:27.000Z</time>
      </trkpt>
      <trkpt lat="42.70444" lon="-0.03772">
        <ele>2147</ele>
        <time>2025-04-06T12:53:30.000Z</time>
      </trkpt>
      <trkpt lat="42.70458" lon="-0.03763">
        <ele>2144</ele>
        <time>2025-04-06T12:53:33.000Z</time>
      </trkpt>
      <trkpt lat="42.70478" lon="-0.03748">
        <ele>2138</ele>
        <time>2025-04-06T12:53:39.000Z</time>
      </trkpt>
      <trkpt lat="42.70492" lon="-0.03738">
        <ele>2135</ele>
        <time>2025-04-06T12:53:42.000Z</time>
      </trkpt>
      <trkpt lat="42.70507" lon="-0.03727">
        <ele>2130</ele>
        <time>2025-04-06T12:53:48.000Z</time>
      </trkpt>
      <trkpt lat="42.70529" lon="-0.03737">
        <ele>2122</ele>
        <time>2025-04-06T12:54:03.000Z</time>
      </trkpt>
      <trkpt lat="42.70544" lon="-0.03755">
        <ele>2117</ele>
        <time>2025-04-06T12:54:06.000Z</time>
      </trkpt>
      <trkpt lat="42.70558" lon="-0.03774">
        <ele>2111</ele>
        <time>2025-04-06T12:54:09.000Z</time>
      </trkpt>
      <trkpt lat="42.70573" lon="-0.03794">
        <ele>2105</ele>
        <time>2025-04-06T12:54:12.000Z</time>
      </trkpt>
      <trkpt lat="42.70589" lon="-0.03816">
        <ele>2101</ele>
        <time>2025-04-06T12:54:15.000Z</time>
      </trkpt>
      <trkpt lat="42.70604" lon="-0.03835">
        <ele>2100</ele>
        <time>2025-04-06T12:54:18.000Z</time>
      </trkpt>
      <trkpt lat="42.70618" lon="-0.03844">
        <ele>2099</ele>
        <time>2025-04-06T12:54:24.000Z</time>
      </trkpt>
      <trkpt lat="42.7063" lon="-0.03856">
        <ele>2099</ele>
        <time>2025-04-06T12:55:06.000Z</time>
      </trkpt>
      <trkpt lat="42.70642" lon="-0.03878">
        <ele>2093</ele>
        <time>2025-04-06T12:55:12.000Z</time>
      </trkpt>
      <trkpt lat="42.70652" lon="-0.03894">
        <ele>2087</ele>
        <time>2025-04-06T12:55:15.000Z</time>
      </trkpt>
      <trkpt lat="42.70664" lon="-0.03894">
        <ele>2081</ele>
        <time>2025-04-06T12:55:21.000Z</time>
      </trkpt>
      <trkpt lat="42.70669" lon="-0.03873">
        <ele>2074</ele>
        <time>2025-04-06T12:55:27.000Z</time>
      </trkpt>
      <trkpt lat="42.70691" lon="-0.03876">
        <ele>2066</ele>
        <time>2025-04-06T12:55:33.000Z</time>
      </trkpt>
      <trkpt lat="42.70706" lon="-0.0387">
        <ele>2057</ele>
        <time>2025-04-06T12:55:39.000Z</time>
      </trkpt>
      <trkpt lat="42.70712" lon="-0.03854">
        <ele>2052</ele>
        <time>2025-04-06T12:55:45.000Z</time>
      </trkpt>
      <trkpt lat="42.70724" lon="-0.03862">
        <ele>2050</ele>
        <time>2025-04-06T12:55:48.000Z</time>
      </trkpt>
      <trkpt lat="42.70736" lon="-0.0388">
        <ele>2044</ele>
        <time>2025-04-06T12:55:54.000Z</time>
      </trkpt>
      <trkpt lat="42.70748" lon="-0.03888">
        <ele>2041</ele>
        <time>2025-04-06T12:56:25.000Z</time>
      </trkpt>
      <trkpt lat="42.70755" lon="-0.03871">
        <ele>2033</ele>
        <time>2025-04-06T12:56:29.000Z</time>
      </trkpt>
      <trkpt lat="42.70761" lon="-0.03858">
        <ele>2025</ele>
        <time>2025-04-06T12:56:34.000Z</time>
      </trkpt>
      <trkpt lat="42.70772" lon="-0.03866">
        <ele>2022</ele>
        <time>2025-04-06T12:56:38.000Z</time>
      </trkpt>
      <trkpt lat="42.70782" lon="-0.03879">
        <ele>2019</ele>
        <time>2025-04-06T12:56:42.000Z</time>
      </trkpt>
      <trkpt lat="42.70792" lon="-0.0389">
        <ele>2015</ele>
        <time>2025-04-06T12:56:57.000Z</time>
      </trkpt>
      <trkpt lat="42.70808" lon="-0.0389">
        <ele>2006</ele>
        <time>2025-04-06T12:57:30.000Z</time>
      </trkpt>
      <trkpt lat="42.70821" lon="-0.03882">
        <ele>1990</ele>
        <time>2025-04-06T12:57:36.000Z</time>
      </trkpt>
      <trkpt lat="42.70833" lon="-0.03892">
        <ele>1986</ele>
        <time>2025-04-06T12:57:39.000Z</time>
      </trkpt>
      <trkpt lat="42.70842" lon="-0.03911">
        <ele>1982</ele>
        <time>2025-04-06T12:57:42.000Z</time>
      </trkpt>
      <trkpt lat="42.70856" lon="-0.03932">
        <ele>1969</ele>
        <time>2025-04-06T12:58:06.000Z</time>
      </trkpt>
      <trkpt lat="42.70861" lon="-0.03954">
        <ele>1964</ele>
        <time>2025-04-06T12:58:09.000Z</time>
      </trkpt>
      <trkpt lat="42.70862" lon="-0.03975">
        <ele>1962</ele>
        <time>2025-04-06T12:58:12.000Z</time>
      </trkpt>
      <trkpt lat="42.70866" lon="-0.03998">
        <ele>1956</ele>
        <time>2025-04-06T12:59:01.000Z</time>
      </trkpt>
      <trkpt lat="42.7089" lon="-0.04022">
        <ele>1941</ele>
        <time>2025-04-06T12:59:12.000Z</time>
      </trkpt>
      <trkpt lat="42.70901" lon="-0.0404">
        <ele>1932</ele>
        <time>2025-04-06T12:59:15.000Z</time>
      </trkpt>
      <trkpt lat="42.70915" lon="-0.04053">
        <ele>1921</ele>
        <time>2025-04-06T12:59:21.000Z</time>
      </trkpt>
      <trkpt lat="42.70921" lon="-0.04074">
        <ele>1917</ele>
        <time>2025-04-06T12:59:24.000Z</time>
      </trkpt>
      <trkpt lat="42.70937" lon="-0.04093">
        <ele>1908</ele>
        <time>2025-04-06T12:59:30.000Z</time>
      </trkpt>
      <trkpt lat="42.70945" lon="-0.04116">
        <ele>1904</ele>
        <time>2025-04-06T12:59:33.000Z</time>
      </trkpt>
      <trkpt lat="42.70951" lon="-0.0414">
        <ele>1903</ele>
        <time>2025-04-06T12:59:36.000Z</time>
      </trkpt>
      <trkpt lat="42.70958" lon="-0.04159">
        <ele>1899</ele>
        <time>2025-04-06T12:59:39.000Z</time>
      </trkpt>
      <trkpt lat="42.70968" lon="-0.04172">
        <ele>1898</ele>
        <time>2025-04-06T12:59:45.000Z</time>
      </trkpt>
      <trkpt lat="42.70983" lon="-0.04182">
        <ele>1898</ele>
        <time>2025-04-06T13:00:03.000Z</time>
      </trkpt>
      <trkpt lat="42.70998" lon="-0.04189">
        <ele>1896</ele>
        <time>2025-04-06T13:00:15.000Z</time>
      </trkpt>
      <trkpt lat="42.71011" lon="-0.04196">
        <ele>1895</ele>
        <time>2025-04-06T13:00:23.000Z</time>
      </trkpt>
      <trkpt lat="42.71022" lon="-0.04205">
        <ele>1897</ele>
        <time>2025-04-06T13:02:05.000Z</time>
      </trkpt>
      <trkpt lat="42.71029" lon="-0.0422">
        <ele>1899</ele>
        <time>2025-04-06T13:02:29.000Z</time>
      </trkpt>
      <trkpt lat="42.71029" lon="-0.04238">
        <ele>1900</ele>
        <time>2025-04-06T13:14:28.000Z</time>
      </trkpt>
      <trkpt lat="42.71027" lon="-0.04257">
        <ele>1901</ele>
        <time>2025-04-06T13:14:45.000Z</time>
      </trkpt>
      <trkpt lat="42.71027" lon="-0.04276">
        <ele>1902</ele>
        <time>2025-04-06T13:15:01.000Z</time>
      </trkpt>
      <trkpt lat="42.71028" lon="-0.04295">
        <ele>1904</ele>
        <time>2025-04-06T13:15:19.000Z</time>
      </trkpt>
      <trkpt lat="42.7103" lon="-0.04314">
        <ele>1905</ele>
        <time>2025-04-06T13:16:09.000Z</time>
      </trkpt>
      <trkpt lat="42.71034" lon="-0.04332">
        <ele>1908</ele>
        <time>2025-04-06T13:16:33.000Z</time>
      </trkpt>
      <trkpt lat="42.71038" lon="-0.04349">
        <ele>1911</ele>
        <time>2025-04-06T13:17:01.000Z</time>
      </trkpt>
      <trkpt lat="42.71044" lon="-0.04364">
        <ele>1915</ele>
        <time>2025-04-06T13:17:36.000Z</time>
      </trkpt>
      <trkpt lat="42.71055" lon="-0.04375">
        <ele>1918</ele>
        <time>2025-04-06T13:18:11.000Z</time>
      </trkpt>
      <trkpt lat="42.71059" lon="-0.0439">
        <ele>1922</ele>
        <time>2025-04-06T13:18:48.000Z</time>
      </trkpt>
      <trkpt lat="42.71053" lon="-0.04406">
        <ele>1924</ele>
        <time>2025-04-06T13:19:17.000Z</time>
      </trkpt>
      <trkpt lat="42.71047" lon="-0.04421">
        <ele>1929</ele>
        <time>2025-04-06T13:19:47.000Z</time>
      </trkpt>
      <trkpt lat="42.7105" lon="-0.04437">
        <ele>1933</ele>
        <time>2025-04-06T13:21:01.000Z</time>
      </trkpt>
      <trkpt lat="42.71056" lon="-0.04453">
        <ele>1938</ele>
        <time>2025-04-06T13:22:40.000Z</time>
      </trkpt>
      <trkpt lat="42.71057" lon="-0.0447">
        <ele>1945</ele>
        <time>2025-04-06T13:23:24.000Z</time>
      </trkpt>
      <trkpt lat="42.71054" lon="-0.04488">
        <ele>1949</ele>
        <time>2025-04-06T13:24:23.000Z</time>
      </trkpt>
      <trkpt lat="42.71047" lon="-0.04504">
        <ele>1955</ele>
        <time>2025-04-06T13:24:50.000Z</time>
      </trkpt>
      <trkpt lat="42.71043" lon="-0.04521">
        <ele>1956</ele>
        <time>2025-04-06T13:25:07.000Z</time>
      </trkpt>
      <trkpt lat="42.71038" lon="-0.04539">
        <ele>1955</ele>
        <time>2025-04-06T13:25:25.000Z</time>
      </trkpt>
      <trkpt lat="42.71038" lon="-0.04555">
        <ele>1959</ele>
        <time>2025-04-06T13:25:52.000Z</time>
      </trkpt>
      <trkpt lat="42.71048" lon="-0.04565">
        <ele>1962</ele>
        <time>2025-04-06T13:26:26.000Z</time>
      </trkpt>
      <trkpt lat="42.71052" lon="-0.04581">
        <ele>1965</ele>
        <time>2025-04-06T13:27:14.000Z</time>
      </trkpt>
      <trkpt lat="42.71056" lon="-0.04597">
        <ele>1968</ele>
        <time>2025-04-06T13:27:38.000Z</time>
      </trkpt>
      <trkpt lat="42.71067" lon="-0.04603">
        <ele>1972</ele>
        <time>2025-04-06T13:28:23.000Z</time>
      </trkpt>
      <trkpt lat="42.71081" lon="-0.04606">
        <ele>1976</ele>
        <time>2025-04-06T13:28:49.000Z</time>
      </trkpt>
      <trkpt lat="42.71094" lon="-0.04609">
        <ele>1981</ele>
        <time>2025-04-06T13:29:18.000Z</time>
      </trkpt>
      <trkpt lat="42.71105" lon="-0.04618">
        <ele>1985</ele>
        <time>2025-04-06T13:30:28.000Z</time>
      </trkpt>
      <trkpt lat="42.71118" lon="-0.04621">
        <ele>1991</ele>
        <time>2025-04-06T13:32:00.000Z</time>
      </trkpt>
      <trkpt lat="42.71128" lon="-0.0463">
        <ele>2001</ele>
        <time>2025-04-06T13:34:30.000Z</time>
      </trkpt>
      <trkpt lat="42.71128" lon="-0.04648">
        <ele>2004</ele>
        <time>2025-04-06T13:35:37.000Z</time>
      </trkpt>
      <trkpt lat="42.71124" lon="-0.04665">
        <ele>2007</ele>
        <time>2025-04-06T13:36:05.000Z</time>
      </trkpt>
      <trkpt lat="42.7112" lon="-0.04682">
        <ele>2012</ele>
        <time>2025-04-06T13:37:15.000Z</time>
      </trkpt>
      <trkpt lat="42.71116" lon="-0.047">
        <ele>2016</ele>
        <time>2025-04-06T13:37:43.000Z</time>
      </trkpt>
      <trkpt lat="42.71112" lon="-0.04717">
        <ele>2018</ele>
        <time>2025-04-06T13:38:06.000Z</time>
      </trkpt>
      <trkpt lat="42.71113" lon="-0.04735">
        <ele>2021</ele>
        <time>2025-04-06T13:38:29.000Z</time>
      </trkpt>
      <trkpt lat="42.71114" lon="-0.04754">
        <ele>2025</ele>
        <time>2025-04-06T13:38:54.000Z</time>
      </trkpt>
      <trkpt lat="42.71115" lon="-0.04773">
        <ele>2028</ele>
        <time>2025-04-06T13:40:16.000Z</time>
      </trkpt>
      <trkpt lat="42.71115" lon="-0.04792">
        <ele>2034</ele>
        <time>2025-04-06T13:40:45.000Z</time>
      </trkpt>
      <trkpt lat="42.71118" lon="-0.04809">
        <ele>2040</ele>
        <time>2025-04-06T13:42:55.000Z</time>
      </trkpt>
      <trkpt lat="42.71121" lon="-0.04827">
        <ele>2045</ele>
        <time>2025-04-06T13:44:10.000Z</time>
      </trkpt>
      <trkpt lat="42.71125" lon="-0.04843">
        <ele>2051</ele>
        <time>2025-04-06T13:45:34.000Z</time>
      </trkpt>
      <trkpt lat="42.71121" lon="-0.04858">
        <ele>2054</ele>
        <time>2025-04-06T13:46:09.000Z</time>
      </trkpt>
      <trkpt lat="42.71131" lon="-0.04865">
        <ele>2058</ele>
        <time>2025-04-06T13:46:55.000Z</time>
      </trkpt>
      <trkpt lat="42.71142" lon="-0.04868">
        <ele>2062</ele>
        <time>2025-04-06T13:47:44.000Z</time>
      </trkpt>
      <trkpt lat="42.71136" lon="-0.04881">
        <ele>2066</ele>
        <time>2025-04-06T13:48:44.000Z</time>
      </trkpt>
      <trkpt lat="42.7113" lon="-0.04896">
        <ele>2068</ele>
        <time>2025-04-06T13:49:15.000Z</time>
      </trkpt>
      <trkpt lat="42.71136" lon="-0.04911">
        <ele>2074</ele>
        <time>2025-04-06T13:50:31.000Z</time>
      </trkpt>
      <trkpt lat="42.7114" lon="-0.04929">
        <ele>2079</ele>
        <time>2025-04-06T13:51:02.000Z</time>
      </trkpt>
      <trkpt lat="42.71145" lon="-0.04947">
        <ele>2082</ele>
        <time>2025-04-06T13:51:29.000Z</time>
      </trkpt>
      <trkpt lat="42.71149" lon="-0.04964">
        <ele>2085</ele>
        <time>2025-04-06T13:51:56.000Z</time>
      </trkpt>
      <trkpt lat="42.71154" lon="-0.04982">
        <ele>2088</ele>
        <time>2025-04-06T13:52:20.000Z</time>
      </trkpt>
      <trkpt lat="42.7116" lon="-0.04999">
        <ele>2093</ele>
        <time>2025-04-06T13:53:26.000Z</time>
      </trkpt>
      <trkpt lat="42.71166" lon="-0.05017">
        <ele>2099</ele>
        <time>2025-04-06T13:53:56.000Z</time>
      </trkpt>
      <trkpt lat="42.71172" lon="-0.05033">
        <ele>2102</ele>
        <time>2025-04-06T13:54:54.000Z</time>
      </trkpt>
      <trkpt lat="42.71184" lon="-0.05036">
        <ele>2108</ele>
        <time>2025-04-06T13:56:53.000Z</time>
      </trkpt>
      <trkpt lat="42.71191" lon="-0.0505">
        <ele>2114</ele>
        <time>2025-04-06T13:58:15.000Z</time>
      </trkpt>
      <trkpt lat="42.71192" lon="-0.05068">
        <ele>2118</ele>
        <time>2025-04-06T13:58:45.000Z</time>
      </trkpt>
      <trkpt lat="42.71189" lon="-0.05085">
        <ele>2121</ele>
        <time>2025-04-06T13:59:40.000Z</time>
      </trkpt>
      <trkpt lat="42.71182" lon="-0.051">
        <ele>2123</ele>
        <time>2025-04-06T14:00:04.000Z</time>
      </trkpt>
      <trkpt lat="42.71177" lon="-0.05116">
        <ele>2127</ele>
        <time>2025-04-06T14:00:27.000Z</time>
      </trkpt>
      <trkpt lat="42.71175" lon="-0.05134">
        <ele>2130</ele>
        <time>2025-04-06T14:00:48.000Z</time>
      </trkpt>
      <trkpt lat="42.71174" lon="-0.05152">
        <ele>2133</ele>
        <time>2025-04-06T14:01:17.000Z</time>
      </trkpt>
      <trkpt lat="42.71174" lon="-0.0517">
        <ele>2136</ele>
        <time>2025-04-06T14:02:07.000Z</time>
      </trkpt>
      <trkpt lat="42.71174" lon="-0.05189">
        <ele>2141</ele>
        <time>2025-04-06T14:02:35.000Z</time>
      </trkpt>
      <trkpt lat="42.71178" lon="-0.05207">
        <ele>2144</ele>
        <time>2025-04-06T14:03:30.000Z</time>
      </trkpt>
      <trkpt lat="42.71183" lon="-0.05224">
        <ele>2147</ele>
        <time>2025-04-06T14:03:54.000Z</time>
      </trkpt>
      <trkpt lat="42.71189" lon="-0.0524">
        <ele>2152</ele>
        <time>2025-04-06T14:04:19.000Z</time>
      </trkpt>
      <trkpt lat="42.71201" lon="-0.05245">
        <ele>2156</ele>
        <time>2025-04-06T14:05:34.000Z</time>
      </trkpt>
      <trkpt lat="42.7121" lon="-0.05257">
        <ele>2161</ele>
        <time>2025-04-06T14:06:45.000Z</time>
      </trkpt>
      <trkpt lat="42.7121" lon="-0.05275">
        <ele>2167</ele>
        <time>2025-04-06T14:07:13.000Z</time>
      </trkpt>
      <trkpt lat="42.71209" lon="-0.05293">
        <ele>2170</ele>
        <time>2025-04-06T14:07:38.000Z</time>
      </trkpt>
      <trkpt lat="42.71209" lon="-0.0531">
        <ele>2173</ele>
        <time>2025-04-06T14:08:06.000Z</time>
      </trkpt>
      <trkpt lat="42.7122" lon="-0.05317">
        <ele>2179</ele>
        <time>2025-04-06T14:09:33.000Z</time>
      </trkpt>
      <trkpt lat="42.71232" lon="-0.05314">
        <ele>2183</ele>
        <time>2025-04-06T14:10:00.000Z</time>
      </trkpt>
      <trkpt lat="42.71237" lon="-0.05328">
        <ele>2191</ele>
        <time>2025-04-06T14:11:33.000Z</time>
      </trkpt>
      <trkpt lat="42.71237" lon="-0.05346">
        <ele>2193</ele>
        <time>2025-04-06T14:12:00.000Z</time>
      </trkpt>
      <trkpt lat="42.71236" lon="-0.05364">
        <ele>2199</ele>
        <time>2025-04-06T14:12:46.000Z</time>
      </trkpt>
      <trkpt lat="42.71236" lon="-0.05382">
        <ele>2201</ele>
        <time>2025-04-06T14:13:11.000Z</time>
      </trkpt>
      <trkpt lat="42.71238" lon="-0.05397">
        <ele>2204</ele>
        <time>2025-04-06T14:13:37.000Z</time>
      </trkpt>
      <trkpt lat="42.71249" lon="-0.05391">
        <ele>2212</ele>
        <time>2025-04-06T14:15:10.000Z</time>
      </trkpt>
      <trkpt lat="42.71256" lon="-0.05375">
        <ele>2213</ele>
        <time>2025-04-06T14:15:29.000Z</time>
      </trkpt>
      <trkpt lat="42.71263" lon="-0.05359">
        <ele>2215</ele>
        <time>2025-04-06T14:15:56.000Z</time>
      </trkpt>
      <trkpt lat="42.71272" lon="-0.05342">
        <ele>2215</ele>
        <time>2025-04-06T14:16:21.000Z</time>
      </trkpt>
      <trkpt lat="42.71279" lon="-0.05326">
        <ele>2216</ele>
        <time>2025-04-06T14:17:04.000Z</time>
      </trkpt>
      <trkpt lat="42.71286" lon="-0.05309">
        <ele>2217</ele>
        <time>2025-04-06T14:17:28.000Z</time>
      </trkpt>
      <trkpt lat="42.71292" lon="-0.05293">
        <ele>2217</ele>
        <time>2025-04-06T14:17:56.000Z</time>
      </trkpt>
      <trkpt lat="42.71298" lon="-0.05277">
        <ele>2218</ele>
        <time>2025-04-06T14:18:15.000Z</time>
      </trkpt>
      <trkpt lat="42.71305" lon="-0.05261">
        <ele>2218</ele>
        <time>2025-04-06T14:18:32.000Z</time>
      </trkpt>
      <trkpt lat="42.71313" lon="-0.05247">
        <ele>2219</ele>
        <time>2025-04-06T14:18:52.000Z</time>
      </trkpt>
      <trkpt lat="42.71325" lon="-0.05239">
        <ele>2219</ele>
        <time>2025-04-06T14:39:40.000Z</time>
      </trkpt>
      <trkpt lat="42.7134" lon="-0.05238">
        <ele>2217</ele>
        <time>2025-04-06T14:39:47.000Z</time>
      </trkpt>
      <trkpt lat="42.71361" lon="-0.05238">
        <ele>2215</ele>
        <time>2025-04-06T14:39:54.000Z</time>
      </trkpt>
      <trkpt lat="42.71375" lon="-0.05231">
        <ele>2213</ele>
        <time>2025-04-06T14:40:21.000Z</time>
      </trkpt>
      <trkpt lat="42.71387" lon="-0.05216">
        <ele>2209</ele>
        <time>2025-04-06T14:40:51.000Z</time>
      </trkpt>
      <trkpt lat="42.71396" lon="-0.05193">
        <ele>2207</ele>
        <time>2025-04-06T14:40:57.000Z</time>
      </trkpt>
      <trkpt lat="42.71411" lon="-0.05173">
        <ele>2202</ele>
        <time>2025-04-06T14:41:03.000Z</time>
      </trkpt>
      <trkpt lat="42.71423" lon="-0.05161">
        <ele>2196</ele>
        <time>2025-04-06T14:41:06.000Z</time>
      </trkpt>
      <trkpt lat="42.71438" lon="-0.05153">
        <ele>2193</ele>
        <time>2025-04-06T14:41:09.000Z</time>
      </trkpt>
      <trkpt lat="42.71452" lon="-0.05145">
        <ele>2191</ele>
        <time>2025-04-06T14:41:12.000Z</time>
      </trkpt>
      <trkpt lat="42.71468" lon="-0.05138">
        <ele>2185</ele>
        <time>2025-04-06T14:41:18.000Z</time>
      </trkpt>
      <trkpt lat="42.71475" lon="-0.05153">
        <ele>2182</ele>
        <time>2025-04-06T14:41:21.000Z</time>
      </trkpt>
      <trkpt lat="42.71484" lon="-0.05169">
        <ele>2178</ele>
        <time>2025-04-06T14:41:27.000Z</time>
      </trkpt>
      <trkpt lat="42.71497" lon="-0.05159">
        <ele>2173</ele>
        <time>2025-04-06T14:41:30.000Z</time>
      </trkpt>
      <trkpt lat="42.71515" lon="-0.05146">
        <ele>2167</ele>
        <time>2025-04-06T14:41:36.000Z</time>
      </trkpt>
      <trkpt lat="42.71523" lon="-0.0516">
        <ele>2159</ele>
        <time>2025-04-06T14:41:39.000Z</time>
      </trkpt>
      <trkpt lat="42.71532" lon="-0.05179">
        <ele>2156</ele>
        <time>2025-04-06T14:41:42.000Z</time>
      </trkpt>
      <trkpt lat="42.71546" lon="-0.05188">
        <ele>2155</ele>
        <time>2025-04-06T14:41:45.000Z</time>
      </trkpt>
      <trkpt lat="42.71561" lon="-0.05188">
        <ele>2153</ele>
        <time>2025-04-06T14:41:57.000Z</time>
      </trkpt>
      <trkpt lat="42.71578" lon="-0.0518">
        <ele>2151</ele>
        <time>2025-04-06T14:42:03.000Z</time>
      </trkpt>
      <trkpt lat="42.71596" lon="-0.05171">
        <ele>2147</ele>
        <time>2025-04-06T14:42:09.000Z</time>
      </trkpt>
      <trkpt lat="42.71614" lon="-0.05164">
        <ele>2143</ele>
        <time>2025-04-06T14:42:15.000Z</time>
      </trkpt>
      <trkpt lat="42.71634" lon="-0.05158">
        <ele>2138</ele>
        <time>2025-04-06T14:42:21.000Z</time>
      </trkpt>
      <trkpt lat="42.71649" lon="-0.05157">
        <ele>2136</ele>
        <time>2025-04-06T14:42:24.000Z</time>
      </trkpt>
      <trkpt lat="42.71666" lon="-0.05154">
        <ele>2134</ele>
        <time>2025-04-06T14:42:30.000Z</time>
      </trkpt>
      <trkpt lat="42.71682" lon="-0.05145">
        <ele>2131</ele>
        <time>2025-04-06T14:42:36.000Z</time>
      </trkpt>
      <trkpt lat="42.71695" lon="-0.05126">
        <ele>2125</ele>
        <time>2025-04-06T14:42:57.000Z</time>
      </trkpt>
      <trkpt lat="42.71707" lon="-0.05106">
        <ele>2122</ele>
        <time>2025-04-06T14:43:03.000Z</time>
      </trkpt>
      <trkpt lat="42.71723" lon="-0.05103">
        <ele>2116</ele>
        <time>2025-04-06T14:43:09.000Z</time>
      </trkpt>
      <trkpt lat="42.71739" lon="-0.05084">
        <ele>2111</ele>
        <time>2025-04-06T14:43:15.000Z</time>
      </trkpt>
      <trkpt lat="42.71757" lon="-0.05075">
        <ele>2102</ele>
        <time>2025-04-06T14:43:21.000Z</time>
      </trkpt>
      <trkpt lat="42.7178" lon="-0.0507">
        <ele>2092</ele>
        <time>2025-04-06T14:43:27.000Z</time>
      </trkpt>
      <trkpt lat="42.718" lon="-0.0506">
        <ele>2085</ele>
        <time>2025-04-06T14:43:33.000Z</time>
      </trkpt>
      <trkpt lat="42.71818" lon="-0.05062">
        <ele>2077</ele>
        <time>2025-04-06T14:43:39.000Z</time>
      </trkpt>
      <trkpt lat="42.71833" lon="-0.05053">
        <ele>2070</ele>
        <time>2025-04-06T14:43:45.000Z</time>
      </trkpt>
      <trkpt lat="42.71841" lon="-0.05038">
        <ele>2069</ele>
        <time>2025-04-06T14:44:03.000Z</time>
      </trkpt>
      <trkpt lat="42.71858" lon="-0.05032">
        <ele>2064</ele>
        <time>2025-04-06T14:44:09.000Z</time>
      </trkpt>
      <trkpt lat="42.71879" lon="-0.05018">
        <ele>2060</ele>
        <time>2025-04-06T14:44:15.000Z</time>
      </trkpt>
      <trkpt lat="42.71892" lon="-0.05007">
        <ele>2054</ele>
        <time>2025-04-06T14:44:18.000Z</time>
      </trkpt>
      <trkpt lat="42.71891" lon="-0.04981">
        <ele>2046</ele>
        <time>2025-04-06T14:44:24.000Z</time>
      </trkpt>
      <trkpt lat="42.71886" lon="-0.04956">
        <ele>2047</ele>
        <time>2025-04-06T14:44:45.000Z</time>
      </trkpt>
      <trkpt lat="42.71891" lon="-0.04936">
        <ele>2043</ele>
        <time>2025-04-06T14:44:51.000Z</time>
      </trkpt>
      <trkpt lat="42.71905" lon="-0.0492">
        <ele>2037</ele>
        <time>2025-04-06T14:44:57.000Z</time>
      </trkpt>
      <trkpt lat="42.7192" lon="-0.04897">
        <ele>2032</ele>
        <time>2025-04-06T14:45:03.000Z</time>
      </trkpt>
      <trkpt lat="42.7194" lon="-0.04877">
        <ele>2025</ele>
        <time>2025-04-06T14:45:09.000Z</time>
      </trkpt>
      <trkpt lat="42.71955" lon="-0.04865">
        <ele>2022</ele>
        <time>2025-04-06T14:45:12.000Z</time>
      </trkpt>
      <trkpt lat="42.71973" lon="-0.04854">
        <ele>2020</ele>
        <time>2025-04-06T14:45:18.000Z</time>
      </trkpt>
      <trkpt lat="42.71991" lon="-0.04849">
        <ele>2017</ele>
        <time>2025-04-06T14:45:27.000Z</time>
      </trkpt>
      <trkpt lat="42.7201" lon="-0.04845">
        <ele>2012</ele>
        <time>2025-04-06T14:45:36.000Z</time>
      </trkpt>
      <trkpt lat="42.72029" lon="-0.04841">
        <ele>2008</ele>
        <time>2025-04-06T14:45:42.000Z</time>
      </trkpt>
      <trkpt lat="42.7205" lon="-0.04835">
        <ele>2005</ele>
        <time>2025-04-06T14:45:48.000Z</time>
      </trkpt>
      <trkpt lat="42.72065" lon="-0.04825">
        <ele>2004</ele>
        <time>2025-04-06T14:45:57.000Z</time>
      </trkpt>
      <trkpt lat="42.72077" lon="-0.04813">
        <ele>2003</ele>
        <time>2025-04-06T14:46:03.000Z</time>
      </trkpt>
      <trkpt lat="42.72089" lon="-0.04799">
        <ele>2002</ele>
        <time>2025-04-06T14:46:09.000Z</time>
      </trkpt>
      <trkpt lat="42.72101" lon="-0.04784">
        <ele>2000</ele>
        <time>2025-04-06T14:46:15.000Z</time>
      </trkpt>
      <trkpt lat="42.72113" lon="-0.04771">
        <ele>1998</ele>
        <time>2025-04-06T14:46:21.000Z</time>
      </trkpt>
      <trkpt lat="42.72127" lon="-0.04757">
        <ele>1997</ele>
        <time>2025-04-06T14:46:27.000Z</time>
      </trkpt>
      <trkpt lat="42.72141" lon="-0.0474">
        <ele>1995</ele>
        <time>2025-04-06T14:46:33.000Z</time>
      </trkpt>
      <trkpt lat="42.72154" lon="-0.0472">
        <ele>1995</ele>
        <time>2025-04-06T14:46:39.000Z</time>
      </trkpt>
      <trkpt lat="42.72166" lon="-0.04707">
        <ele>1993</ele>
        <time>2025-04-06T14:46:45.000Z</time>
      </trkpt>
      <trkpt lat="42.72178" lon="-0.04697">
        <ele>1993</ele>
        <time>2025-04-06T14:46:54.000Z</time>
      </trkpt>
      <trkpt lat="42.72191" lon="-0.04681">
        <ele>1992</ele>
        <time>2025-04-06T14:47:03.000Z</time>
      </trkpt>
      <trkpt lat="42.72203" lon="-0.04665">
        <ele>1991</ele>
        <time>2025-04-06T14:47:09.000Z</time>
      </trkpt>
      <trkpt lat="42.72217" lon="-0.04643">
        <ele>1990</ele>
        <time>2025-04-06T14:47:15.000Z</time>
      </trkpt>
      <trkpt lat="42.72233" lon="-0.0462">
        <ele>1988</ele>
        <time>2025-04-06T14:47:21.000Z</time>
      </trkpt>
      <trkpt lat="42.72248" lon="-0.04601">
        <ele>1986</ele>
        <time>2025-04-06T14:47:27.000Z</time>
      </trkpt>
      <trkpt lat="42.72263" lon="-0.04586">
        <ele>1985</ele>
        <time>2025-04-06T14:47:33.000Z</time>
      </trkpt>
      <trkpt lat="42.72276" lon="-0.04576">
        <ele>1985</ele>
        <time>2025-04-06T14:47:39.000Z</time>
      </trkpt>
      <trkpt lat="42.72289" lon="-0.04568">
        <ele>1983</ele>
        <time>2025-04-06T14:47:48.000Z</time>
      </trkpt>
      <trkpt lat="42.72301" lon="-0.04553">
        <ele>1982</ele>
        <time>2025-04-06T14:48:03.000Z</time>
      </trkpt>
      <trkpt lat="42.7231" lon="-0.04538">
        <ele>1982</ele>
        <time>2025-04-06T14:48:09.000Z</time>
      </trkpt>
      <trkpt lat="42.72318" lon="-0.04518">
        <ele>1981</ele>
        <time>2025-04-06T14:48:15.000Z</time>
      </trkpt>
      <trkpt lat="42.72328" lon="-0.04494">
        <ele>1979</ele>
        <time>2025-04-06T14:48:21.000Z</time>
      </trkpt>
      <trkpt lat="42.7234" lon="-0.04469">
        <ele>1976</ele>
        <time>2025-04-06T14:48:27.000Z</time>
      </trkpt>
      <trkpt lat="42.72352" lon="-0.04442">
        <ele>1973</ele>
        <time>2025-04-06T14:48:33.000Z</time>
      </trkpt>
      <trkpt lat="42.72365" lon="-0.04416">
        <ele>1972</ele>
        <time>2025-04-06T14:48:39.000Z</time>
      </trkpt>
      <trkpt lat="42.72379" lon="-0.04394">
        <ele>1970</ele>
        <time>2025-04-06T14:48:45.000Z</time>
      </trkpt>
      <trkpt lat="42.72395" lon="-0.04373">
        <ele>1967</ele>
        <time>2025-04-06T14:48:51.000Z</time>
      </trkpt>
      <trkpt lat="42.72411" lon="-0.04352">
        <ele>1965</ele>
        <time>2025-04-06T14:48:57.000Z</time>
      </trkpt>
      <trkpt lat="42.72427" lon="-0.04333">
        <ele>1964</ele>
        <time>2025-04-06T14:49:03.000Z</time>
      </trkpt>
      <trkpt lat="42.72443" lon="-0.04314">
        <ele>1961</ele>
        <time>2025-04-06T14:49:09.000Z</time>
      </trkpt>
      <trkpt lat="42.7246" lon="-0.04294">
        <ele>1959</ele>
        <time>2025-04-06T14:49:15.000Z</time>
      </trkpt>
      <trkpt lat="42.72477" lon="-0.04275">
        <ele>1955</ele>
        <time>2025-04-06T14:49:21.000Z</time>
      </trkpt>
      <trkpt lat="42.72493" lon="-0.04258">
        <ele>1955</ele>
        <time>2025-04-06T14:49:27.000Z</time>
      </trkpt>
      <trkpt lat="42.72508" lon="-0.04243">
        <ele>1954</ele>
        <time>2025-04-06T14:49:33.000Z</time>
      </trkpt>
      <trkpt lat="42.72522" lon="-0.04229">
        <ele>1951</ele>
        <time>2025-04-06T14:49:39.000Z</time>
      </trkpt>
      <trkpt lat="42.72537" lon="-0.04213">
        <ele>1950</ele>
        <time>2025-04-06T14:49:45.000Z</time>
      </trkpt>
      <trkpt lat="42.72552" lon="-0.04194">
        <ele>1948</ele>
        <time>2025-04-06T14:49:51.000Z</time>
      </trkpt>
      <trkpt lat="42.72569" lon="-0.04175">
        <ele>1944</ele>
        <time>2025-04-06T14:49:57.000Z</time>
      </trkpt>
      <trkpt lat="42.72588" lon="-0.04158">
        <ele>1941</ele>
        <time>2025-04-06T14:50:03.000Z</time>
      </trkpt>
      <trkpt lat="42.72612" lon="-0.04145">
        <ele>1938</ele>
        <time>2025-04-06T14:50:09.000Z</time>
      </trkpt>
      <trkpt lat="42.72629" lon="-0.04138">
        <ele>1935</ele>
        <time>2025-04-06T14:50:12.000Z</time>
      </trkpt>
      <trkpt lat="42.72644" lon="-0.04133">
        <ele>1934</ele>
        <time>2025-04-06T14:50:15.000Z</time>
      </trkpt>
      <trkpt lat="42.72663" lon="-0.04127">
        <ele>1932</ele>
        <time>2025-04-06T14:50:21.000Z</time>
      </trkpt>
      <trkpt lat="42.72684" lon="-0.04114">
        <ele>1928</ele>
        <time>2025-04-06T14:50:27.000Z</time>
      </trkpt>
      <trkpt lat="42.72698" lon="-0.04104">
        <ele>1924</ele>
        <time>2025-04-06T14:50:30.000Z</time>
      </trkpt>
      <trkpt lat="42.72712" lon="-0.04092">
        <ele>1921</ele>
        <time>2025-04-06T14:50:33.000Z</time>
      </trkpt>
      <trkpt lat="42.72721" lon="-0.04076">
        <ele>1920</ele>
        <time>2025-04-06T14:50:36.000Z</time>
      </trkpt>
      <trkpt lat="42.72724" lon="-0.04056">
        <ele>1919</ele>
        <time>2025-04-06T14:50:39.000Z</time>
      </trkpt>
      <trkpt lat="42.72724" lon="-0.04027">
        <ele>1915</ele>
        <time>2025-04-06T14:50:45.000Z</time>
      </trkpt>
      <trkpt lat="42.72725" lon="-0.03996">
        <ele>1913</ele>
        <time>2025-04-06T14:50:51.000Z</time>
      </trkpt>
      <trkpt lat="42.72723" lon="-0.03965">
        <ele>1912</ele>
        <time>2025-04-06T14:50:57.000Z</time>
      </trkpt>
      <trkpt lat="42.72718" lon="-0.03937">
        <ele>1910</ele>
        <time>2025-04-06T14:51:03.000Z</time>
      </trkpt>
      <trkpt lat="42.72711" lon="-0.03911">
        <ele>1907</ele>
        <time>2025-04-06T14:51:09.000Z</time>
      </trkpt>
      <trkpt lat="42.72706" lon="-0.03886">
        <ele>1904</ele>
        <time>2025-04-06T14:51:15.000Z</time>
      </trkpt>
      <trkpt lat="42.72703" lon="-0.03863">
        <ele>1902</ele>
        <time>2025-04-06T14:51:21.000Z</time>
      </trkpt>
      <trkpt lat="42.72699" lon="-0.03838">
        <ele>1900</ele>
        <time>2025-04-06T14:51:27.000Z</time>
      </trkpt>
      <trkpt lat="42.72694" lon="-0.0381">
        <ele>1902</ele>
        <time>2025-04-06T14:51:33.000Z</time>
      </trkpt>
      <trkpt lat="42.72688" lon="-0.03781">
        <ele>1896</ele>
        <time>2025-04-06T14:51:39.000Z</time>
      </trkpt>
      <trkpt lat="42.72682" lon="-0.0375">
        <ele>1892</ele>
        <time>2025-04-06T14:51:45.000Z</time>
      </trkpt>
      <trkpt lat="42.72676" lon="-0.03718">
        <ele>1888</ele>
        <time>2025-04-06T14:51:51.000Z</time>
      </trkpt>
      <trkpt lat="42.72673" lon="-0.03697">
        <ele>1887</ele>
        <time>2025-04-06T14:51:54.000Z</time>
      </trkpt>
      <trkpt lat="42.7267" lon="-0.03678">
        <ele>1885</ele>
        <time>2025-04-06T14:51:57.000Z</time>
      </trkpt>
      <trkpt lat="42.72665" lon="-0.0366">
        <ele>1883</ele>
        <time>2025-04-06T14:52:00.000Z</time>
      </trkpt>
      <trkpt lat="42.72661" lon="-0.03642">
        <ele>1883</ele>
        <time>2025-04-06T14:52:03.000Z</time>
      </trkpt>
      <trkpt lat="42.72658" lon="-0.03623">
        <ele>1883</ele>
        <time>2025-04-06T14:52:06.000Z</time>
      </trkpt>
      <trkpt lat="42.72655" lon="-0.03595">
        <ele>1881</ele>
        <time>2025-04-06T14:52:12.000Z</time>
      </trkpt>
      <trkpt lat="42.72657" lon="-0.03566">
        <ele>1879</ele>
        <time>2025-04-06T14:52:18.000Z</time>
      </trkpt>
      <trkpt lat="42.7266" lon="-0.03534">
        <ele>1874</ele>
        <time>2025-04-06T14:52:24.000Z</time>
      </trkpt>
      <trkpt lat="42.72661" lon="-0.03513">
        <ele>1871</ele>
        <time>2025-04-06T14:52:27.000Z</time>
      </trkpt>
      <trkpt lat="42.72665" lon="-0.03484">
        <ele>1870</ele>
        <time>2025-04-06T14:52:33.000Z</time>
      </trkpt>
      <trkpt lat="42.72668" lon="-0.03454">
        <ele>1871</ele>
        <time>2025-04-06T14:52:39.000Z</time>
      </trkpt>
      <trkpt lat="42.72668" lon="-0.03424">
        <ele>1872</ele>
        <time>2025-04-06T14:52:45.000Z</time>
      </trkpt>
      <trkpt lat="42.72664" lon="-0.03395">
        <ele>1870</ele>
        <time>2025-04-06T14:52:51.000Z</time>
      </trkpt>
      <trkpt lat="42.72661" lon="-0.03366">
        <ele>1863</ele>
        <time>2025-04-06T14:52:57.000Z</time>
      </trkpt>
      <trkpt lat="42.72663" lon="-0.03335">
        <ele>1858</ele>
        <time>2025-04-06T14:53:03.000Z</time>
      </trkpt>
      <trkpt lat="42.7267" lon="-0.03308">
        <ele>1857</ele>
        <time>2025-04-06T14:53:09.000Z</time>
      </trkpt>
      <trkpt lat="42.72675" lon="-0.03281">
        <ele>1855</ele>
        <time>2025-04-06T14:53:15.000Z</time>
      </trkpt>
      <trkpt lat="42.7268" lon="-0.03256">
        <ele>1853</ele>
        <time>2025-04-06T14:53:21.000Z</time>
      </trkpt>
      <trkpt lat="42.72686" lon="-0.03229">
        <ele>1851</ele>
        <time>2025-04-06T14:53:27.000Z</time>
      </trkpt>
      <trkpt lat="42.72695" lon="-0.032">
        <ele>1848</ele>
        <time>2025-04-06T14:53:33.000Z</time>
      </trkpt>
      <trkpt lat="42.72704" lon="-0.03183">
        <ele>1846</ele>
        <time>2025-04-06T14:53:36.000Z</time>
      </trkpt>
      <trkpt lat="42.72715" lon="-0.03169">
        <ele>1845</ele>
        <time>2025-04-06T14:53:39.000Z</time>
      </trkpt>
      <trkpt lat="42.72736" lon="-0.03155">
        <ele>1843</ele>
        <time>2025-04-06T14:53:45.000Z</time>
      </trkpt>
      <trkpt lat="42.72759" lon="-0.03145">
        <ele>1841</ele>
        <time>2025-04-06T14:53:51.000Z</time>
      </trkpt>
      <trkpt lat="42.72782" lon="-0.03138">
        <ele>1840</ele>
        <time>2025-04-06T14:53:57.000Z</time>
      </trkpt>
      <trkpt lat="42.72803" lon="-0.03134">
        <ele>1839</ele>
        <time>2025-04-06T14:54:03.000Z</time>
      </trkpt>
      <trkpt lat="42.72818" lon="-0.03138">
        <ele>1838</ele>
        <time>2025-04-06T14:54:09.000Z</time>
      </trkpt>
      <trkpt lat="42.72832" lon="-0.0314">
        <ele>1838</ele>
        <time>2025-04-06T14:54:15.000Z</time>
      </trkpt>
      <trkpt lat="42.72848" lon="-0.03139">
        <ele>1838</ele>
        <time>2025-04-06T14:54:27.000Z</time>
      </trkpt>
      <trkpt lat="42.72863" lon="-0.03144">
        <ele>1838</ele>
        <time>2025-04-06T14:54:42.000Z</time>
      </trkpt>
      <trkpt lat="42.72878" lon="-0.0315">
        <ele>1835</ele>
        <time>2025-04-06T14:56:30.000Z</time>
      </trkpt>
      <trkpt lat="42.72891" lon="-0.03155">
        <ele>1834</ele>
        <time>2025-04-06T14:56:45.000Z</time>
      </trkpt>
      <trkpt lat="42.72905" lon="-0.03158">
        <ele>1834</ele>
        <time>2025-04-06T14:57:00.000Z</time>
      </trkpt>
      <trkpt lat="42.72916" lon="-0.03169">
        <ele>1832</ele>
        <time>2025-04-06T14:57:17.000Z</time>
      </trkpt>
      <trkpt lat="42.72928" lon="-0.03166">
        <ele>1832</ele>
        <time>2025-04-06T14:57:31.000Z</time>
      </trkpt>
      <trkpt lat="42.72937" lon="-0.03156">
        <ele>1831</ele>
        <time>2025-04-06T14:58:07.000Z</time>
      </trkpt>
      <trkpt lat="42.7295" lon="-0.03162">
        <ele>1830</ele>
        <time>2025-04-06T14:58:20.000Z</time>
      </trkpt>
      <trkpt lat="42.72964" lon="-0.03167">
        <ele>1828</ele>
        <time>2025-04-06T14:58:34.000Z</time>
      </trkpt>
    </trkseg>
  </trk>
</gpx>